<?xml version="1.0" encoding="UTF-8" standalone="no" ?>
<gpx xmlns="http://www.topografix.com/GPX/1/1" xmlns:xsi="http://www.w3.org/2001/XMLSchema-instance" xsi:schemaLocation="http://www.topografix.com/GPX/1/1 http://www.topografix.com/GPX/1/1/gpx.xsd" version="1.1" creator="VisuGPX - https://www.visugpx.com">
  <metadata>
    <name>Pontoise-Honfleur 2012 etape 03 Petit-Couronne-La Frenaye</name>
    <desc><![CDATA[Pontoise-Honfleur 2012 etape 03 Petit-Couronne-La Frenaye, version définitive.]]></desc>
  </metadata>
  <trk>
    <name><![CDATA[03-Petit-Couronne-La-Frenaye]]></name>
    <trkseg>
      <trkpt lat="49.38887" lon="1.02999">
        <ele>37</ele>
        <time>2012-04-03T08:10:37Z</time>
      </trkpt>
      <trkpt lat="49.38863" lon="1.03036">
        <ele>39</ele>
        <time>2012-04-03T08:14:15Z</time>
      </trkpt>
      <trkpt lat="49.38818" lon="1.03007">
        <ele>38</ele>
        <time>2012-04-03T08:14:27Z</time>
      </trkpt>
      <trkpt lat="49.38771" lon="1.02983">
        <ele>38</ele>
        <time>2012-04-03T08:14:37Z</time>
      </trkpt>
      <trkpt lat="49.3872" lon="1.02973">
        <ele>30</ele>
        <time>2012-04-03T08:14:45Z</time>
      </trkpt>
      <trkpt lat="49.38692" lon="1.02983">
        <ele>24</ele>
        <time>2012-04-03T08:14:55Z</time>
      </trkpt>
      <trkpt lat="49.3871" lon="1.02906">
        <ele>21</ele>
        <time>2012-04-03T08:15:03Z</time>
      </trkpt>
      <trkpt lat="49.38722" lon="1.02832">
        <ele>17</ele>
        <time>2012-04-03T08:15:09Z</time>
      </trkpt>
      <trkpt lat="49.38727" lon="1.02766">
        <ele>14</ele>
        <time>2012-04-03T08:15:19Z</time>
      </trkpt>
      <trkpt lat="49.38758" lon="1.02706">
        <ele>15</ele>
        <time>2012-04-03T08:15:29Z</time>
      </trkpt>
      <trkpt lat="49.38781" lon="1.02641">
        <ele>13</ele>
        <time>2012-04-03T08:15:38Z</time>
      </trkpt>
      <trkpt lat="49.38804" lon="1.02581">
        <ele>14</ele>
        <time>2012-04-03T08:15:46Z</time>
      </trkpt>
      <trkpt lat="49.38819" lon="1.02523">
        <ele>12</ele>
        <time>2012-04-03T08:15:53Z</time>
      </trkpt>
      <trkpt lat="49.38822" lon="1.02444">
        <ele>10</ele>
        <time>2012-04-03T08:16:00Z</time>
      </trkpt>
      <trkpt lat="49.38813" lon="1.02372">
        <ele>9</ele>
        <time>2012-04-03T08:16:06Z</time>
      </trkpt>
      <trkpt lat="49.38818" lon="1.02303">
        <ele>9</ele>
        <time>2012-04-03T08:16:14Z</time>
      </trkpt>
      <trkpt lat="49.38827" lon="1.0224">
        <ele>7</ele>
        <time>2012-04-03T08:17:07Z</time>
      </trkpt>
      <trkpt lat="49.38829" lon="1.02181">
        <ele>6</ele>
        <time>2012-04-03T08:17:15Z</time>
      </trkpt>
      <trkpt lat="49.38786" lon="1.02168">
        <ele>7</ele>
        <time>2012-04-03T08:17:25Z</time>
      </trkpt>
      <trkpt lat="49.38743" lon="1.02145">
        <ele>9</ele>
        <time>2012-04-03T08:17:35Z</time>
      </trkpt>
      <trkpt lat="49.38701" lon="1.02142">
        <ele>12</ele>
        <time>2012-04-03T08:17:54Z</time>
      </trkpt>
      <trkpt lat="49.38652" lon="1.02135">
        <ele>13</ele>
        <time>2012-04-03T08:18:05Z</time>
      </trkpt>
      <trkpt lat="49.38604" lon="1.02129">
        <ele>14</ele>
        <time>2012-04-03T08:18:16Z</time>
      </trkpt>
      <trkpt lat="49.38554" lon="1.02118">
        <ele>15</ele>
        <time>2012-04-03T08:18:26Z</time>
      </trkpt>
      <trkpt lat="49.3851" lon="1.02104">
        <ele>14</ele>
        <time>2012-04-03T08:18:37Z</time>
      </trkpt>
      <trkpt lat="49.38464" lon="1.02106">
        <ele>15</ele>
        <time>2012-04-03T08:18:47Z</time>
      </trkpt>
      <trkpt lat="49.38421" lon="1.02126">
        <ele>16</ele>
        <time>2012-04-03T08:18:59Z</time>
      </trkpt>
      <trkpt lat="49.38377" lon="1.02114">
        <ele>16</ele>
        <time>2012-04-03T08:19:09Z</time>
      </trkpt>
      <trkpt lat="49.38328" lon="1.02091">
        <ele>16</ele>
        <time>2012-04-03T08:19:18Z</time>
      </trkpt>
      <trkpt lat="49.38301" lon="1.02046">
        <ele>15</ele>
        <time>2012-04-03T08:19:27Z</time>
      </trkpt>
      <trkpt lat="49.38315" lon="1.01979">
        <ele>12</ele>
        <time>2012-04-03T08:19:35Z</time>
      </trkpt>
      <trkpt lat="49.38328" lon="1.01905">
        <ele>9</ele>
        <time>2012-04-03T08:19:43Z</time>
      </trkpt>
      <trkpt lat="49.38341" lon="1.01832">
        <ele>7</ele>
        <time>2012-04-03T08:19:51Z</time>
      </trkpt>
      <trkpt lat="49.38355" lon="1.01766">
        <ele>6</ele>
        <time>2012-04-03T08:19:59Z</time>
      </trkpt>
      <trkpt lat="49.38367" lon="1.01701">
        <ele>5</ele>
        <time>2012-04-03T08:20:07Z</time>
      </trkpt>
      <trkpt lat="49.3838" lon="1.01635">
        <ele>5</ele>
        <time>2012-04-03T08:20:17Z</time>
      </trkpt>
      <trkpt lat="49.38396" lon="1.01568">
        <ele>5</ele>
        <time>2012-04-03T08:21:03Z</time>
      </trkpt>
      <trkpt lat="49.38418" lon="1.01502">
        <ele>5</ele>
        <time>2012-04-03T08:21:13Z</time>
      </trkpt>
      <trkpt lat="49.38439" lon="1.01435">
        <ele>4</ele>
        <time>2012-04-03T08:21:22Z</time>
      </trkpt>
      <trkpt lat="49.38461" lon="1.01366">
        <ele>4</ele>
        <time>2012-04-03T08:21:31Z</time>
      </trkpt>
      <trkpt lat="49.38487" lon="1.01299">
        <ele>4</ele>
        <time>2012-04-03T08:21:39Z</time>
      </trkpt>
      <trkpt lat="49.38515" lon="1.01245">
        <ele>4</ele>
        <time>2012-04-03T08:21:48Z</time>
      </trkpt>
      <trkpt lat="49.38539" lon="1.01186">
        <ele>4</ele>
        <time>2012-04-03T08:22:58Z</time>
      </trkpt>
      <trkpt lat="49.38569" lon="1.01126">
        <ele>3</ele>
        <time>2012-04-03T08:30:24Z</time>
      </trkpt>
      <trkpt lat="49.38601" lon="1.01068">
        <ele>4</ele>
        <time>2012-04-03T08:30:43Z</time>
      </trkpt>
      <trkpt lat="49.38628" lon="1.0101">
        <ele>4</ele>
        <time>2012-04-03T08:31:00Z</time>
      </trkpt>
      <trkpt lat="49.38631" lon="1.00943">
        <ele>5</ele>
        <time>2012-04-03T08:31:23Z</time>
      </trkpt>
      <trkpt lat="49.38618" lon="1.0088">
        <ele>5</ele>
        <time>2012-04-03T08:31:47Z</time>
      </trkpt>
      <trkpt lat="49.38596" lon="1.0082">
        <ele>4</ele>
        <time>2012-04-03T08:32:58Z</time>
      </trkpt>
      <trkpt lat="49.38572" lon="1.0078">
        <ele>3</ele>
        <time>2012-04-03T08:36:35Z</time>
      </trkpt>
      <trkpt lat="49.38584" lon="1.00713">
        <ele>2</ele>
        <time>2012-04-03T08:36:47Z</time>
      </trkpt>
      <trkpt lat="49.3856" lon="1.00685">
        <ele>2</ele>
        <time>2012-04-03T08:36:58Z</time>
      </trkpt>
      <trkpt lat="49.38511" lon="1.00687">
        <ele>2</ele>
        <time>2012-04-03T08:37:09Z</time>
      </trkpt>
      <trkpt lat="49.38464" lon="1.00675">
        <ele>2</ele>
        <time>2012-04-03T08:37:20Z</time>
      </trkpt>
      <trkpt lat="49.38414" lon="1.00662">
        <ele>2</ele>
        <time>2012-04-03T08:37:30Z</time>
      </trkpt>
      <trkpt lat="49.38368" lon="1.00651">
        <ele>2</ele>
        <time>2012-04-03T08:37:40Z</time>
      </trkpt>
      <trkpt lat="49.38324" lon="1.00639">
        <ele>2</ele>
        <time>2012-04-03T08:37:50Z</time>
      </trkpt>
      <trkpt lat="49.38279" lon="1.00622">
        <ele>2</ele>
        <time>2012-04-03T08:38:01Z</time>
      </trkpt>
      <trkpt lat="49.38253" lon="1.00579">
        <ele>2</ele>
        <time>2012-04-03T08:38:13Z</time>
      </trkpt>
      <trkpt lat="49.38268" lon="1.0051">
        <ele>3</ele>
        <time>2012-04-03T08:38:23Z</time>
      </trkpt>
      <trkpt lat="49.38247" lon="1.00453">
        <ele>3</ele>
        <time>2012-04-03T08:38:34Z</time>
      </trkpt>
      <trkpt lat="49.38204" lon="1.00431">
        <ele>3</ele>
        <time>2012-04-03T08:38:44Z</time>
      </trkpt>
      <trkpt lat="49.38163" lon="1.00404">
        <ele>4</ele>
        <time>2012-04-03T08:38:54Z</time>
      </trkpt>
      <trkpt lat="49.38126" lon="1.00367">
        <ele>4</ele>
        <time>2012-04-03T08:39:04Z</time>
      </trkpt>
      <trkpt lat="49.38129" lon="1.00291">
        <ele>8</ele>
        <time>2012-04-03T08:39:15Z</time>
      </trkpt>
      <trkpt lat="49.38098" lon="1.0025">
        <ele>11</ele>
        <time>2012-04-03T08:39:29Z</time>
      </trkpt>
      <trkpt lat="49.38055" lon="1.00236">
        <ele>12</ele>
        <time>2012-04-03T08:39:40Z</time>
      </trkpt>
      <trkpt lat="49.3801" lon="1.0022">
        <ele>12</ele>
        <time>2012-04-03T08:39:52Z</time>
      </trkpt>
      <trkpt lat="49.37966" lon="1.00192">
        <ele>9</ele>
        <time>2012-04-03T08:40:03Z</time>
      </trkpt>
      <trkpt lat="49.37939" lon="1.00147">
        <ele>10</ele>
        <time>2012-04-03T08:40:19Z</time>
      </trkpt>
      <trkpt lat="49.37952" lon="1.00079">
        <ele>18</ele>
        <time>2012-04-03T08:40:37Z</time>
      </trkpt>
      <trkpt lat="49.37972" lon="1.00019">
        <ele>21</ele>
        <time>2012-04-03T08:40:59Z</time>
      </trkpt>
      <trkpt lat="49.37989" lon="0.99955">
        <ele>25</ele>
        <time>2012-04-03T08:41:22Z</time>
      </trkpt>
      <trkpt lat="49.38009" lon="0.99891">
        <ele>29</ele>
        <time>2012-04-03T08:41:44Z</time>
      </trkpt>
      <trkpt lat="49.38031" lon="0.99826">
        <ele>31</ele>
        <time>2012-04-03T08:42:05Z</time>
      </trkpt>
      <trkpt lat="49.38053" lon="0.99767">
        <ele>33</ele>
        <time>2012-04-03T08:42:25Z</time>
      </trkpt>
      <trkpt lat="49.3808" lon="0.99713">
        <ele>35</ele>
        <time>2012-04-03T08:42:42Z</time>
      </trkpt>
      <trkpt lat="49.38107" lon="0.99656">
        <ele>37</ele>
        <time>2012-04-03T08:42:59Z</time>
      </trkpt>
      <trkpt lat="49.38132" lon="0.99598">
        <ele>41</ele>
        <time>2012-04-03T08:43:16Z</time>
      </trkpt>
      <trkpt lat="49.38153" lon="0.99533">
        <ele>42</ele>
        <time>2012-04-03T08:43:53Z</time>
      </trkpt>
      <trkpt lat="49.3817" lon="0.9947">
        <ele>47</ele>
        <time>2012-04-03T08:44:13Z</time>
      </trkpt>
      <trkpt lat="49.38181" lon="0.99402">
        <ele>48</ele>
        <time>2012-04-03T08:44:30Z</time>
      </trkpt>
      <trkpt lat="49.38191" lon="0.9933">
        <ele>49</ele>
        <time>2012-04-03T08:44:49Z</time>
      </trkpt>
      <trkpt lat="49.38205" lon="0.99258">
        <ele>51</ele>
        <time>2012-04-03T08:45:13Z</time>
      </trkpt>
      <trkpt lat="49.38225" lon="0.99165">
        <ele>55</ele>
        <time>2012-04-03T08:45:46Z</time>
      </trkpt>
      <trkpt lat="49.38229" lon="0.99074">
        <ele>65</ele>
        <time>2012-04-03T08:47:04Z</time>
      </trkpt>
      <trkpt lat="49.38233" lon="0.98986">
        <ele>73</ele>
        <time>2012-04-03T08:48:49Z</time>
      </trkpt>
      <trkpt lat="49.38252" lon="0.98902">
        <ele>77</ele>
        <time>2012-04-03T08:49:18Z</time>
      </trkpt>
      <trkpt lat="49.38266" lon="0.98827">
        <ele>80</ele>
        <time>2012-04-03T08:49:39Z</time>
      </trkpt>
      <trkpt lat="49.3827" lon="0.98747">
        <ele>81</ele>
        <time>2012-04-03T08:49:57Z</time>
      </trkpt>
      <trkpt lat="49.38279" lon="0.98669">
        <ele>83</ele>
        <time>2012-04-03T08:50:15Z</time>
      </trkpt>
      <trkpt lat="49.38289" lon="0.98595">
        <ele>83</ele>
        <time>2012-04-03T08:50:32Z</time>
      </trkpt>
      <trkpt lat="49.38296" lon="0.98523">
        <ele>83</ele>
        <time>2012-04-03T08:50:45Z</time>
      </trkpt>
      <trkpt lat="49.38302" lon="0.98454">
        <ele>83</ele>
        <time>2012-04-03T08:50:55Z</time>
      </trkpt>
      <trkpt lat="49.38307" lon="0.98369">
        <ele>80</ele>
        <time>2012-04-03T08:51:06Z</time>
      </trkpt>
      <trkpt lat="49.38311" lon="0.98287">
        <ele>78</ele>
        <time>2012-04-03T08:51:15Z</time>
      </trkpt>
      <trkpt lat="49.38305" lon="0.98219">
        <ele>77</ele>
        <time>2012-04-03T08:51:24Z</time>
      </trkpt>
      <trkpt lat="49.38331" lon="0.98164">
        <ele>77</ele>
        <time>2012-04-03T08:52:09Z</time>
      </trkpt>
      <trkpt lat="49.38369" lon="0.98114">
        <ele>78</ele>
        <time>2012-04-03T08:52:23Z</time>
      </trkpt>
      <trkpt lat="49.38408" lon="0.98067">
        <ele>81</ele>
        <time>2012-04-03T08:52:40Z</time>
      </trkpt>
      <trkpt lat="49.38446" lon="0.98016">
        <ele>83</ele>
        <time>2012-04-03T08:52:56Z</time>
      </trkpt>
      <trkpt lat="49.38487" lon="0.98007">
        <ele>85</ele>
        <time>2012-04-03T08:53:15Z</time>
      </trkpt>
      <trkpt lat="49.38532" lon="0.98043">
        <ele>86</ele>
        <time>2012-04-03T08:53:31Z</time>
      </trkpt>
      <trkpt lat="49.38575" lon="0.9808">
        <ele>87</ele>
        <time>2012-04-03T08:53:47Z</time>
      </trkpt>
      <trkpt lat="49.38616" lon="0.98117">
        <ele>88</ele>
        <time>2012-04-03T08:54:03Z</time>
      </trkpt>
      <trkpt lat="49.38662" lon="0.98155">
        <ele>88</ele>
        <time>2012-04-03T08:54:17Z</time>
      </trkpt>
      <trkpt lat="49.38708" lon="0.98193">
        <ele>90</ele>
        <time>2012-04-03T08:54:29Z</time>
      </trkpt>
      <trkpt lat="49.38757" lon="0.98237">
        <ele>95</ele>
        <time>2012-04-03T08:54:50Z</time>
      </trkpt>
      <trkpt lat="49.38812" lon="0.98293">
        <ele>102</ele>
        <time>2012-04-03T08:55:30Z</time>
      </trkpt>
      <trkpt lat="49.38864" lon="0.98337">
        <ele>107</ele>
        <time>2012-04-03T08:56:03Z</time>
      </trkpt>
      <trkpt lat="49.38925" lon="0.98394">
        <ele>110</ele>
        <time>2012-04-03T08:56:33Z</time>
      </trkpt>
      <trkpt lat="49.38969" lon="0.9844">
        <ele>112</ele>
        <time>2012-04-03T08:56:45Z</time>
      </trkpt>
      <trkpt lat="49.39013" lon="0.9848">
        <ele>111</ele>
        <time>2012-04-03T08:56:58Z</time>
      </trkpt>
      <trkpt lat="49.39059" lon="0.98522">
        <ele>112</ele>
        <time>2012-04-03T08:57:10Z</time>
      </trkpt>
      <trkpt lat="49.39101" lon="0.9856">
        <ele>112</ele>
        <time>2012-04-03T08:57:22Z</time>
      </trkpt>
      <trkpt lat="49.39146" lon="0.98599">
        <ele>112</ele>
        <time>2012-04-03T08:57:33Z</time>
      </trkpt>
      <trkpt lat="49.39186" lon="0.98634">
        <ele>112</ele>
        <time>2012-04-03T08:57:44Z</time>
      </trkpt>
      <trkpt lat="49.3923" lon="0.98674">
        <ele>113</ele>
        <time>2012-04-03T08:57:55Z</time>
      </trkpt>
      <trkpt lat="49.39273" lon="0.98713">
        <ele>113</ele>
        <time>2012-04-03T08:58:07Z</time>
      </trkpt>
      <trkpt lat="49.39318" lon="0.98754">
        <ele>113</ele>
        <time>2012-04-03T08:58:17Z</time>
      </trkpt>
      <trkpt lat="49.39359" lon="0.98792">
        <ele>113</ele>
        <time>2012-04-03T08:58:27Z</time>
      </trkpt>
      <trkpt lat="49.39402" lon="0.9883">
        <ele>113</ele>
        <time>2012-04-03T08:58:37Z</time>
      </trkpt>
      <trkpt lat="49.39444" lon="0.98868">
        <ele>113</ele>
        <time>2012-04-03T08:58:47Z</time>
      </trkpt>
      <trkpt lat="49.39487" lon="0.98904">
        <ele>114</ele>
        <time>2012-04-03T08:58:58Z</time>
      </trkpt>
      <trkpt lat="49.3953" lon="0.98944">
        <ele>114</ele>
        <time>2012-04-03T08:59:08Z</time>
      </trkpt>
      <trkpt lat="49.39571" lon="0.98982">
        <ele>115</ele>
        <time>2012-04-03T08:59:19Z</time>
      </trkpt>
      <trkpt lat="49.39619" lon="0.99023">
        <ele>115</ele>
        <time>2012-04-03T08:59:32Z</time>
      </trkpt>
      <trkpt lat="49.39665" lon="0.99064">
        <ele>115</ele>
        <time>2012-04-03T08:59:45Z</time>
      </trkpt>
      <trkpt lat="49.39709" lon="0.99107">
        <ele>115</ele>
        <time>2012-04-03T08:59:55Z</time>
      </trkpt>
      <trkpt lat="49.39751" lon="0.99147">
        <ele>115</ele>
        <time>2012-04-03T09:00:05Z</time>
      </trkpt>
      <trkpt lat="49.39794" lon="0.99188">
        <ele>115</ele>
        <time>2012-04-03T09:00:15Z</time>
      </trkpt>
      <trkpt lat="49.39837" lon="0.99225">
        <ele>115</ele>
        <time>2012-04-03T09:00:25Z</time>
      </trkpt>
      <trkpt lat="49.39877" lon="0.99265">
        <ele>115</ele>
        <time>2012-04-03T09:00:35Z</time>
      </trkpt>
      <trkpt lat="49.39923" lon="0.99304">
        <ele>115</ele>
        <time>2012-04-03T09:00:45Z</time>
      </trkpt>
      <trkpt lat="49.39969" lon="0.99344">
        <ele>115</ele>
        <time>2012-04-03T09:00:56Z</time>
      </trkpt>
      <trkpt lat="49.40013" lon="0.99383">
        <ele>114</ele>
        <time>2012-04-03T09:01:06Z</time>
      </trkpt>
      <trkpt lat="49.40055" lon="0.99419">
        <ele>113</ele>
        <time>2012-04-03T09:01:16Z</time>
      </trkpt>
      <trkpt lat="49.40095" lon="0.99458">
        <ele>111</ele>
        <time>2012-04-03T09:01:28Z</time>
      </trkpt>
      <trkpt lat="49.40141" lon="0.99467">
        <ele>107</ele>
        <time>2012-04-03T09:01:39Z</time>
      </trkpt>
      <trkpt lat="49.40148" lon="0.99401">
        <ele>110</ele>
        <time>2012-04-03T09:01:52Z</time>
      </trkpt>
      <trkpt lat="49.40154" lon="0.99329">
        <ele>111</ele>
        <time>2012-04-03T09:02:04Z</time>
      </trkpt>
      <trkpt lat="49.40159" lon="0.99257">
        <ele>113</ele>
        <time>2012-04-03T09:02:16Z</time>
      </trkpt>
      <trkpt lat="49.40163" lon="0.99181">
        <ele>114</ele>
        <time>2012-04-03T09:02:30Z</time>
      </trkpt>
      <trkpt lat="49.40167" lon="0.99105">
        <ele>115</ele>
        <time>2012-04-03T09:02:44Z</time>
      </trkpt>
      <trkpt lat="49.40169" lon="0.99035">
        <ele>115</ele>
        <time>2012-04-03T09:02:57Z</time>
      </trkpt>
      <trkpt lat="49.40174" lon="0.98957">
        <ele>116</ele>
        <time>2012-04-03T09:03:10Z</time>
      </trkpt>
      <trkpt lat="49.4018" lon="0.98887">
        <ele>116</ele>
        <time>2012-04-03T09:03:20Z</time>
      </trkpt>
      <trkpt lat="49.40182" lon="0.98811">
        <ele>116</ele>
        <time>2012-04-03T09:03:31Z</time>
      </trkpt>
      <trkpt lat="49.40197" lon="0.9875">
        <ele>116</ele>
        <time>2012-04-03T09:03:49Z</time>
      </trkpt>
      <trkpt lat="49.40245" lon="0.98734">
        <ele>116</ele>
        <time>2012-04-03T09:04:03Z</time>
      </trkpt>
      <trkpt lat="49.40292" lon="0.98713">
        <ele>116</ele>
        <time>2012-04-03T09:04:17Z</time>
      </trkpt>
      <trkpt lat="49.40346" lon="0.98683">
        <ele>116</ele>
        <time>2012-04-03T09:04:32Z</time>
      </trkpt>
      <trkpt lat="49.40393" lon="0.98657">
        <ele>116</ele>
        <time>2012-04-03T09:05:15Z</time>
      </trkpt>
      <trkpt lat="49.40438" lon="0.98634">
        <ele>116</ele>
        <time>2012-04-03T09:05:28Z</time>
      </trkpt>
      <trkpt lat="49.4048" lon="0.98666">
        <ele>116</ele>
        <time>2012-04-03T09:05:41Z</time>
      </trkpt>
      <trkpt lat="49.40535" lon="0.98675">
        <ele>117</ele>
        <time>2012-04-03T09:05:55Z</time>
      </trkpt>
      <trkpt lat="49.40592" lon="0.98677">
        <ele>117</ele>
        <time>2012-04-03T09:06:11Z</time>
      </trkpt>
      <trkpt lat="49.40689" lon="0.98697">
        <ele>117</ele>
      </trkpt>
      <trkpt lat="49.40633" lon="0.98536">
        <ele>117</ele>
        <time>2012-04-03T09:19:53Z</time>
      </trkpt>
      <trkpt lat="49.40609" lon="0.98461">
        <ele>117</ele>
        <time>2012-04-03T09:20:03Z</time>
      </trkpt>
      <trkpt lat="49.40544" lon="0.98283">
        <ele>117</ele>
        <time>2012-04-03T09:20:13Z</time>
      </trkpt>
      <trkpt lat="49.4052" lon="0.98223">
        <ele>117</ele>
        <time>2012-04-03T09:20:22Z</time>
      </trkpt>
      <trkpt lat="49.40496" lon="0.98147">
        <ele>117</ele>
        <time>2012-04-03T09:20:31Z</time>
      </trkpt>
      <trkpt lat="49.40475" lon="0.9808">
        <ele>117</ele>
        <time>2012-04-03T09:20:40Z</time>
      </trkpt>
      <trkpt lat="49.40449" lon="0.98015">
        <ele>117</ele>
        <time>2012-04-03T09:20:50Z</time>
      </trkpt>
      <trkpt lat="49.40435" lon="0.9795">
        <ele>117</ele>
        <time>2012-04-03T09:21:19Z</time>
      </trkpt>
      <trkpt lat="49.40483" lon="0.97966">
        <ele>117</ele>
        <time>2012-04-03T09:21:31Z</time>
      </trkpt>
      <trkpt lat="49.40534" lon="0.97981">
        <ele>117</ele>
        <time>2012-04-03T09:21:40Z</time>
      </trkpt>
      <trkpt lat="49.40584" lon="0.97996">
        <ele>117</ele>
        <time>2012-04-03T09:21:49Z</time>
      </trkpt>
      <trkpt lat="49.40629" lon="0.98011">
        <ele>118</ele>
        <time>2012-04-03T09:21:58Z</time>
      </trkpt>
      <trkpt lat="49.40676" lon="0.98024">
        <ele>118</ele>
        <time>2012-04-03T09:22:07Z</time>
      </trkpt>
      <trkpt lat="49.40723" lon="0.98037">
        <ele>118</ele>
        <time>2012-04-03T09:22:16Z</time>
      </trkpt>
      <trkpt lat="49.4077" lon="0.98052">
        <ele>118</ele>
        <time>2012-04-03T09:22:25Z</time>
      </trkpt>
      <trkpt lat="49.40815" lon="0.98064">
        <ele>118</ele>
        <time>2012-04-03T09:22:34Z</time>
      </trkpt>
      <trkpt lat="49.40863" lon="0.9808">
        <ele>118</ele>
        <time>2012-04-03T09:22:43Z</time>
      </trkpt>
      <trkpt lat="49.40913" lon="0.98095">
        <ele>117</ele>
        <time>2012-04-03T09:22:52Z</time>
      </trkpt>
      <trkpt lat="49.40959" lon="0.98109">
        <ele>117</ele>
        <time>2012-04-03T09:23:00Z</time>
      </trkpt>
      <trkpt lat="49.41008" lon="0.98124">
        <ele>117</ele>
        <time>2012-04-03T09:23:09Z</time>
      </trkpt>
      <trkpt lat="49.41055" lon="0.98135">
        <ele>116</ele>
        <time>2012-04-03T09:23:18Z</time>
      </trkpt>
      <trkpt lat="49.41102" lon="0.98149">
        <ele>117</ele>
        <time>2012-04-03T09:23:27Z</time>
      </trkpt>
      <trkpt lat="49.41148" lon="0.98163">
        <ele>117</ele>
        <time>2012-04-03T09:23:35Z</time>
      </trkpt>
      <trkpt lat="49.41197" lon="0.98176">
        <ele>117</ele>
        <time>2012-04-03T09:23:44Z</time>
      </trkpt>
      <trkpt lat="49.41249" lon="0.9819">
        <ele>117</ele>
        <time>2012-04-03T09:23:53Z</time>
      </trkpt>
      <trkpt lat="49.41299" lon="0.98206">
        <ele>117</ele>
        <time>2012-04-03T09:24:01Z</time>
      </trkpt>
      <trkpt lat="49.41343" lon="0.98222">
        <ele>117</ele>
        <time>2012-04-03T09:24:09Z</time>
      </trkpt>
      <trkpt lat="49.4139" lon="0.98232">
        <ele>117</ele>
        <time>2012-04-03T09:24:18Z</time>
      </trkpt>
      <trkpt lat="49.4144" lon="0.98252">
        <ele>117</ele>
        <time>2012-04-03T09:24:28Z</time>
      </trkpt>
      <trkpt lat="49.41489" lon="0.98263">
        <ele>116</ele>
        <time>2012-04-03T09:24:37Z</time>
      </trkpt>
      <trkpt lat="49.4153" lon="0.98278">
        <ele>114</ele>
        <time>2012-04-03T09:24:46Z</time>
      </trkpt>
      <trkpt lat="49.4158" lon="0.98297">
        <ele>112</ele>
        <time>2012-04-03T09:24:55Z</time>
      </trkpt>
      <trkpt lat="49.41629" lon="0.98315">
        <ele>109</ele>
        <time>2012-04-03T09:25:04Z</time>
      </trkpt>
      <trkpt lat="49.41681" lon="0.9833">
        <ele>107</ele>
        <time>2012-04-03T09:25:12Z</time>
      </trkpt>
      <trkpt lat="49.41727" lon="0.98343">
        <ele>105</ele>
        <time>2012-04-03T09:25:18Z</time>
      </trkpt>
      <trkpt lat="49.41775" lon="0.98358">
        <ele>103</ele>
        <time>2012-04-03T09:25:25Z</time>
      </trkpt>
      <trkpt lat="49.41831" lon="0.98372">
        <ele>101</ele>
        <time>2012-04-03T09:25:32Z</time>
      </trkpt>
      <trkpt lat="49.4188" lon="0.98385">
        <ele>94</ele>
        <time>2012-04-03T09:25:38Z</time>
      </trkpt>
      <trkpt lat="49.41928" lon="0.98406">
        <ele>81</ele>
        <time>2012-04-03T09:25:57Z</time>
      </trkpt>
      <trkpt lat="49.41985" lon="0.98423">
        <ele>74</ele>
        <time>2012-04-03T09:26:07Z</time>
      </trkpt>
      <trkpt lat="49.42035" lon="0.98427">
        <ele>81</ele>
        <time>2012-04-03T09:27:19Z</time>
      </trkpt>
      <trkpt lat="49.42087" lon="0.98443">
        <ele>90</ele>
        <time>2012-04-03T09:28:19Z</time>
      </trkpt>
      <trkpt lat="49.42138" lon="0.98458">
        <ele>92</ele>
        <time>2012-04-03T09:28:41Z</time>
      </trkpt>
      <trkpt lat="49.42191" lon="0.98474">
        <ele>92</ele>
        <time>2012-04-03T09:28:58Z</time>
      </trkpt>
      <trkpt lat="49.42245" lon="0.98489">
        <ele>89</ele>
        <time>2012-04-03T09:29:10Z</time>
      </trkpt>
      <trkpt lat="49.42301" lon="0.98503">
        <ele>83</ele>
        <time>2012-04-03T09:29:21Z</time>
      </trkpt>
      <trkpt lat="49.42322" lon="0.98577">
        <ele>84</ele>
        <time>2012-04-03T09:29:33Z</time>
      </trkpt>
      <trkpt lat="49.42359" lon="0.986">
        <ele>81</ele>
        <time>2012-04-03T09:29:48Z</time>
      </trkpt>
      <trkpt lat="49.42404" lon="0.98573">
        <ele>75</ele>
        <time>2012-04-03T09:29:58Z</time>
      </trkpt>
      <trkpt lat="49.42445" lon="0.98553">
        <ele>68</ele>
        <time>2012-04-03T09:30:18Z</time>
      </trkpt>
      <trkpt lat="49.42493" lon="0.9857">
        <ele>68</ele>
        <time>2012-04-03T09:30:24Z</time>
      </trkpt>
      <trkpt lat="49.4254" lon="0.98585">
        <ele>70</ele>
        <time>2012-04-03T09:30:32Z</time>
      </trkpt>
      <trkpt lat="49.42589" lon="0.98595">
        <ele>67</ele>
        <time>2012-04-03T09:30:57Z</time>
      </trkpt>
      <trkpt lat="49.42633" lon="0.98604">
        <ele>60</ele>
        <time>2012-04-03T09:31:10Z</time>
      </trkpt>
      <trkpt lat="49.4268" lon="0.98624">
        <ele>52</ele>
        <time>2012-04-03T09:31:24Z</time>
      </trkpt>
      <trkpt lat="49.42731" lon="0.9864">
        <ele>47</ele>
        <time>2012-04-03T09:31:31Z</time>
      </trkpt>
      <trkpt lat="49.42775" lon="0.98655">
        <ele>45</ele>
        <time>2012-04-03T09:31:37Z</time>
      </trkpt>
      <trkpt lat="49.42821" lon="0.98674">
        <ele>45</ele>
        <time>2012-04-03T09:31:46Z</time>
      </trkpt>
      <trkpt lat="49.42867" lon="0.98686">
        <ele>45</ele>
        <time>2012-04-03T09:32:00Z</time>
      </trkpt>
      <trkpt lat="49.42913" lon="0.98697">
        <ele>45</ele>
        <time>2012-04-03T09:32:15Z</time>
      </trkpt>
      <trkpt lat="49.42959" lon="0.98713">
        <ele>49</ele>
        <time>2012-04-03T09:32:27Z</time>
      </trkpt>
      <trkpt lat="49.43005" lon="0.9876">
        <ele>53</ele>
        <time>2012-04-03T09:32:48Z</time>
      </trkpt>
      <trkpt lat="49.43054" lon="0.98787">
        <ele>50</ele>
        <time>2012-04-03T09:32:58Z</time>
      </trkpt>
      <trkpt lat="49.43101" lon="0.98811">
        <ele>47</ele>
        <time>2012-04-03T09:33:07Z</time>
      </trkpt>
      <trkpt lat="49.43149" lon="0.98826">
        <ele>47</ele>
        <time>2012-04-03T09:33:20Z</time>
      </trkpt>
      <trkpt lat="49.43198" lon="0.98805">
        <ele>46</ele>
        <time>2012-04-03T09:33:36Z</time>
      </trkpt>
      <trkpt lat="49.43311" lon="0.98807">
        <ele>47</ele>
        <time>2012-04-03T09:41:55Z</time>
      </trkpt>
      <trkpt lat="49.43354" lon="0.98683">
        <ele>63</ele>
        <time>2012-04-03T09:42:38Z</time>
      </trkpt>
      <trkpt lat="49.43378" lon="0.9862">
        <ele>65</ele>
        <time>2012-04-03T09:43:02Z</time>
      </trkpt>
      <trkpt lat="49.43405" lon="0.98565">
        <ele>64</ele>
        <time>2012-04-03T09:43:18Z</time>
      </trkpt>
      <trkpt lat="49.43426" lon="0.98507">
        <ele>66</ele>
        <time>2012-04-03T09:43:49Z</time>
      </trkpt>
      <trkpt lat="49.43449" lon="0.98469">
        <ele>68</ele>
        <time>2012-04-03T09:44:52Z</time>
      </trkpt>
      <trkpt lat="49.43474" lon="0.98408">
        <ele>72</ele>
        <time>2012-04-03T09:45:17Z</time>
      </trkpt>
      <trkpt lat="49.43499" lon="0.98349">
        <ele>75</ele>
        <time>2012-04-03T09:45:40Z</time>
      </trkpt>
      <trkpt lat="49.43514" lon="0.98296">
        <ele>77</ele>
        <time>2012-04-03T09:46:22Z</time>
      </trkpt>
      <trkpt lat="49.43497" lon="0.98249">
        <ele>76</ele>
        <time>2012-04-03T09:46:55Z</time>
      </trkpt>
      <trkpt lat="49.43454" lon="0.98212">
        <ele>74</ele>
        <time>2012-04-03T09:47:11Z</time>
      </trkpt>
      <trkpt lat="49.43457" lon="0.9818">
        <ele>75</ele>
        <time>2012-04-03T09:47:40Z</time>
      </trkpt>
      <trkpt lat="49.43495" lon="0.9813">
        <ele>78</ele>
        <time>2012-04-03T09:47:55Z</time>
      </trkpt>
      <trkpt lat="49.4353" lon="0.98083">
        <ele>80</ele>
        <time>2012-04-03T09:48:14Z</time>
      </trkpt>
      <trkpt lat="49.43567" lon="0.98034">
        <ele>81</ele>
        <time>2012-04-03T09:48:33Z</time>
      </trkpt>
      <trkpt lat="49.43604" lon="0.97985">
        <ele>83</ele>
        <time>2012-04-03T09:48:49Z</time>
      </trkpt>
      <trkpt lat="49.43641" lon="0.97935">
        <ele>84</ele>
        <time>2012-04-03T09:49:05Z</time>
      </trkpt>
      <trkpt lat="49.43663" lon="0.9788">
        <ele>85</ele>
        <time>2012-04-03T09:49:20Z</time>
      </trkpt>
      <trkpt lat="49.43629" lon="0.97828">
        <ele>85</ele>
        <time>2012-04-03T09:49:35Z</time>
      </trkpt>
      <trkpt lat="49.43597" lon="0.97781">
        <ele>86</ele>
        <time>2012-04-03T09:49:46Z</time>
      </trkpt>
      <trkpt lat="49.43558" lon="0.97725">
        <ele>86</ele>
        <time>2012-04-03T09:49:56Z</time>
      </trkpt>
      <trkpt lat="49.43522" lon="0.97673">
        <ele>86</ele>
        <time>2012-04-03T09:50:06Z</time>
      </trkpt>
      <trkpt lat="49.4349" lon="0.97622">
        <ele>86</ele>
        <time>2012-04-03T09:50:17Z</time>
      </trkpt>
      <trkpt lat="49.43454" lon="0.97571">
        <ele>86</ele>
        <time>2012-04-03T09:50:27Z</time>
      </trkpt>
      <trkpt lat="49.4342" lon="0.97515">
        <ele>86</ele>
        <time>2012-04-03T09:50:36Z</time>
      </trkpt>
      <trkpt lat="49.43386" lon="0.97465">
        <ele>85</ele>
        <time>2012-04-03T09:50:46Z</time>
      </trkpt>
      <trkpt lat="49.43362" lon="0.97406">
        <ele>85</ele>
        <time>2012-04-03T09:50:59Z</time>
      </trkpt>
      <trkpt lat="49.43349" lon="0.97367">
        <ele>85</ele>
        <time>2012-04-03T09:53:30Z</time>
      </trkpt>
      <trkpt lat="49.43349" lon="0.97296">
        <ele>86</ele>
        <time>2012-04-03T09:53:48Z</time>
      </trkpt>
      <trkpt lat="49.43344" lon="0.97225">
        <ele>86</ele>
        <time>2012-04-03T09:54:00Z</time>
      </trkpt>
      <trkpt lat="49.43321" lon="0.97158">
        <ele>85</ele>
        <time>2012-04-03T09:54:12Z</time>
      </trkpt>
      <trkpt lat="49.433" lon="0.97093">
        <ele>85</ele>
        <time>2012-04-03T09:54:24Z</time>
      </trkpt>
      <trkpt lat="49.43294" lon="0.97027">
        <ele>85</ele>
        <time>2012-04-03T09:54:36Z</time>
      </trkpt>
      <trkpt lat="49.43304" lon="0.96956">
        <ele>86</ele>
        <time>2012-04-03T09:54:48Z</time>
      </trkpt>
      <trkpt lat="49.43313" lon="0.96886">
        <ele>87</ele>
        <time>2012-04-03T09:55:00Z</time>
      </trkpt>
      <trkpt lat="49.43322" lon="0.96815">
        <ele>87</ele>
        <time>2012-04-03T09:55:13Z</time>
      </trkpt>
      <trkpt lat="49.43331" lon="0.96738">
        <ele>87</ele>
        <time>2012-04-03T09:55:24Z</time>
      </trkpt>
      <trkpt lat="49.43339" lon="0.9667">
        <ele>87</ele>
        <time>2012-04-03T09:55:36Z</time>
      </trkpt>
      <trkpt lat="49.43375" lon="0.96611">
        <ele>83</ele>
        <time>2012-04-03T09:56:23Z</time>
      </trkpt>
      <trkpt lat="49.43431" lon="0.96583">
        <ele>77</ele>
        <time>2012-04-03T09:56:31Z</time>
      </trkpt>
      <trkpt lat="49.4348" lon="0.96575">
        <ele>71</ele>
        <time>2012-04-03T09:56:37Z</time>
      </trkpt>
      <trkpt lat="49.43527" lon="0.96585">
        <ele>69</ele>
        <time>2012-04-03T09:56:46Z</time>
      </trkpt>
      <trkpt lat="49.43572" lon="0.96596">
        <ele>67</ele>
        <time>2012-04-03T09:56:54Z</time>
      </trkpt>
      <trkpt lat="49.43627" lon="0.9661">
        <ele>66</ele>
        <time>2012-04-03T09:57:01Z</time>
      </trkpt>
      <trkpt lat="49.43676" lon="0.96616">
        <ele>62</ele>
        <time>2012-04-03T09:57:10Z</time>
      </trkpt>
      <trkpt lat="49.43731" lon="0.96602">
        <ele>53</ele>
        <time>2012-04-03T09:57:21Z</time>
      </trkpt>
      <trkpt lat="49.43778" lon="0.96647">
        <ele>51</ele>
        <time>2012-04-03T09:58:11Z</time>
      </trkpt>
      <trkpt lat="49.43803" lon="0.96748">
        <ele>54</ele>
        <time>2012-04-03T09:58:23Z</time>
      </trkpt>
      <trkpt lat="49.43838" lon="0.96716">
        <ele>48</ele>
        <time>2012-04-03T09:58:40Z</time>
      </trkpt>
      <trkpt lat="49.43868" lon="0.9668">
        <ele>44</ele>
        <time>2012-04-03T09:58:51Z</time>
      </trkpt>
      <trkpt lat="49.43898" lon="0.96616">
        <ele>37</ele>
        <time>2012-04-03T09:58:57Z</time>
      </trkpt>
      <trkpt lat="49.43926" lon="0.96546">
        <ele>31</ele>
        <time>2012-04-03T09:59:02Z</time>
      </trkpt>
      <trkpt lat="49.43945" lon="0.96481">
        <ele>26</ele>
        <time>2012-04-03T09:59:06Z</time>
      </trkpt>
      <trkpt lat="49.43971" lon="0.96422">
        <ele>22</ele>
        <time>2012-04-03T09:59:10Z</time>
      </trkpt>
      <trkpt lat="49.44009" lon="0.96363">
        <ele>19</ele>
        <time>2012-04-03T09:59:15Z</time>
      </trkpt>
      <trkpt lat="49.44039" lon="0.9632">
        <ele>17</ele>
        <time>2012-04-03T09:59:23Z</time>
      </trkpt>
      <trkpt lat="49.44094" lon="0.9633">
        <ele>16</ele>
        <time>2012-04-03T09:59:34Z</time>
      </trkpt>
      <trkpt lat="49.44141" lon="0.96339">
        <ele>15</ele>
        <time>2012-04-03T09:59:49Z</time>
      </trkpt>
      <trkpt lat="49.44186" lon="0.96351">
        <ele>15</ele>
        <time>2012-04-03T10:00:01Z</time>
      </trkpt>
      <trkpt lat="49.44234" lon="0.96371">
        <ele>15</ele>
        <time>2012-04-03T10:00:12Z</time>
      </trkpt>
      <trkpt lat="49.44284" lon="0.96379">
        <ele>16</ele>
        <time>2012-04-03T10:00:24Z</time>
      </trkpt>
      <trkpt lat="49.44332" lon="0.96374">
        <ele>15</ele>
        <time>2012-04-03T10:00:35Z</time>
      </trkpt>
      <trkpt lat="49.44376" lon="0.96374">
        <ele>14</ele>
        <time>2012-04-03T10:00:49Z</time>
      </trkpt>
      <trkpt lat="49.44426" lon="0.96378">
        <ele>14</ele>
        <time>2012-04-03T10:01:02Z</time>
      </trkpt>
      <trkpt lat="49.44456" lon="0.96333">
        <ele>12</ele>
        <time>2012-04-03T10:01:15Z</time>
      </trkpt>
      <trkpt lat="49.44503" lon="0.96358">
        <ele>12</ele>
        <time>2012-04-03T10:01:44Z</time>
      </trkpt>
      <trkpt lat="49.4455" lon="0.96395">
        <ele>11</ele>
        <time>2012-04-03T10:01:56Z</time>
      </trkpt>
      <trkpt lat="49.44595" lon="0.96436">
        <ele>11</ele>
        <time>2012-04-03T10:02:05Z</time>
      </trkpt>
      <trkpt lat="49.44638" lon="0.96459">
        <ele>9</ele>
        <time>2012-04-03T10:02:13Z</time>
      </trkpt>
      <trkpt lat="49.44683" lon="0.96475">
        <ele>8</ele>
        <time>2012-04-03T10:02:22Z</time>
      </trkpt>
      <trkpt lat="49.44735" lon="0.96477">
        <ele>7</ele>
      </trkpt>
      <trkpt lat="49.44812" lon="0.96444">
        <ele>5</ele>
        <time>2012-04-03T11:21:00Z</time>
      </trkpt>
      <trkpt lat="49.44861" lon="0.96464">
        <ele>6</ele>
        <time>2012-04-03T11:21:10Z</time>
      </trkpt>
      <trkpt lat="49.44907" lon="0.9648">
        <ele>9</ele>
        <time>2012-04-03T11:21:21Z</time>
      </trkpt>
      <trkpt lat="49.44947" lon="0.96451">
        <ele>10</ele>
        <time>2012-04-03T11:21:34Z</time>
      </trkpt>
      <trkpt lat="49.44985" lon="0.96408">
        <ele>11</ele>
        <time>2012-04-03T11:21:44Z</time>
      </trkpt>
      <trkpt lat="49.45023" lon="0.96366">
        <ele>11</ele>
        <time>2012-04-03T11:21:54Z</time>
      </trkpt>
      <trkpt lat="49.45063" lon="0.96334">
        <ele>11</ele>
        <time>2012-04-03T11:22:04Z</time>
      </trkpt>
      <trkpt lat="49.45105" lon="0.963">
        <ele>11</ele>
        <time>2012-04-03T11:22:15Z</time>
      </trkpt>
      <trkpt lat="49.45149" lon="0.96266">
        <ele>11</ele>
        <time>2012-04-03T11:22:26Z</time>
      </trkpt>
      <trkpt lat="49.4519" lon="0.96236">
        <ele>10</ele>
        <time>2012-04-03T11:22:36Z</time>
      </trkpt>
      <trkpt lat="49.45233" lon="0.96212">
        <ele>10</ele>
        <time>2012-04-03T11:22:46Z</time>
      </trkpt>
      <trkpt lat="49.45276" lon="0.96187">
        <ele>11</ele>
        <time>2012-04-03T11:22:57Z</time>
      </trkpt>
      <trkpt lat="49.45322" lon="0.96173">
        <ele>11</ele>
        <time>2012-04-03T11:23:08Z</time>
      </trkpt>
      <trkpt lat="49.4536" lon="0.96201">
        <ele>15</ele>
        <time>2012-04-03T11:23:33Z</time>
      </trkpt>
      <trkpt lat="49.45406" lon="0.96231">
        <ele>19</ele>
        <time>2012-04-03T11:23:52Z</time>
      </trkpt>
      <trkpt lat="49.45447" lon="0.96261">
        <ele>24</ele>
        <time>2012-04-03T11:24:13Z</time>
      </trkpt>
      <trkpt lat="49.45486" lon="0.96287">
        <ele>27</ele>
        <time>2012-04-03T11:24:40Z</time>
      </trkpt>
      <trkpt lat="49.45521" lon="0.96329">
        <ele>32</ele>
        <time>2012-04-03T11:25:18Z</time>
      </trkpt>
      <trkpt lat="49.45556" lon="0.96368">
        <ele>39</ele>
        <time>2012-04-03T11:25:54Z</time>
      </trkpt>
      <trkpt lat="49.456" lon="0.96404">
        <ele>47</ele>
        <time>2012-04-03T11:26:33Z</time>
      </trkpt>
      <trkpt lat="49.45641" lon="0.96419">
        <ele>53</ele>
        <time>2012-04-03T11:27:15Z</time>
      </trkpt>
      <trkpt lat="49.45688" lon="0.96437">
        <ele>59</ele>
        <time>2012-04-03T11:27:56Z</time>
      </trkpt>
      <trkpt lat="49.45732" lon="0.96436">
        <ele>61</ele>
        <time>2012-04-03T11:29:36Z</time>
      </trkpt>
      <trkpt lat="49.4578" lon="0.96415">
        <ele>64</ele>
        <time>2012-04-03T11:30:11Z</time>
      </trkpt>
      <trkpt lat="49.45826" lon="0.96417">
        <ele>68</ele>
        <time>2012-04-03T11:30:39Z</time>
      </trkpt>
      <trkpt lat="49.45875" lon="0.96404">
        <ele>74</ele>
        <time>2012-04-03T11:31:15Z</time>
      </trkpt>
      <trkpt lat="49.4593" lon="0.9639">
        <ele>79</ele>
        <time>2012-04-03T11:31:48Z</time>
      </trkpt>
      <trkpt lat="49.45976" lon="0.96354">
        <ele>79</ele>
        <time>2012-04-03T11:32:20Z</time>
      </trkpt>
      <trkpt lat="49.46026" lon="0.96323">
        <ele>83</ele>
        <time>2012-04-03T11:32:44Z</time>
      </trkpt>
      <trkpt lat="49.4608" lon="0.96303">
        <ele>86</ele>
        <time>2012-04-03T11:33:08Z</time>
      </trkpt>
      <trkpt lat="49.46137" lon="0.9628">
        <ele>93</ele>
        <time>2012-04-03T11:33:41Z</time>
      </trkpt>
      <trkpt lat="49.46196" lon="0.96272">
        <ele>101</ele>
        <time>2012-04-03T11:34:23Z</time>
      </trkpt>
      <trkpt lat="49.46248" lon="0.9628">
        <ele>110</ele>
        <time>2012-04-03T11:35:21Z</time>
      </trkpt>
      <trkpt lat="49.46298" lon="0.963">
        <ele>119</ele>
        <time>2012-04-03T11:36:12Z</time>
      </trkpt>
      <trkpt lat="49.46352" lon="0.96304">
        <ele>126</ele>
        <time>2012-04-03T11:36:58Z</time>
      </trkpt>
      <trkpt lat="49.46399" lon="0.96277">
        <ele>128</ele>
        <time>2012-04-03T11:37:25Z</time>
      </trkpt>
      <trkpt lat="49.46421" lon="0.96222">
        <ele>128</ele>
        <time>2012-04-03T11:37:45Z</time>
      </trkpt>
      <trkpt lat="49.46459" lon="0.96176">
        <ele>129</ele>
        <time>2012-04-03T11:38:00Z</time>
      </trkpt>
      <trkpt lat="49.46508" lon="0.96149">
        <ele>130</ele>
        <time>2012-04-03T11:38:14Z</time>
      </trkpt>
      <trkpt lat="49.46554" lon="0.96128">
        <ele>132</ele>
        <time>2012-04-03T11:38:29Z</time>
      </trkpt>
      <trkpt lat="49.46595" lon="0.96074">
        <ele>131</ele>
        <time>2012-04-03T11:38:43Z</time>
      </trkpt>
      <trkpt lat="49.46637" lon="0.96028">
        <ele>129</ele>
        <time>2012-04-03T11:38:58Z</time>
      </trkpt>
      <trkpt lat="49.46691" lon="0.95993">
        <ele>127</ele>
        <time>2012-04-03T11:39:11Z</time>
      </trkpt>
      <trkpt lat="49.46743" lon="0.95967">
        <ele>124</ele>
        <time>2012-04-03T11:39:28Z</time>
      </trkpt>
      <trkpt lat="49.46794" lon="0.95934">
        <ele>124</ele>
        <time>2012-04-03T11:39:44Z</time>
      </trkpt>
      <trkpt lat="49.46857" lon="0.95926">
        <ele>125</ele>
        <time>2012-04-03T11:40:01Z</time>
      </trkpt>
      <trkpt lat="49.46915" lon="0.9589">
        <ele>125</ele>
        <time>2012-04-03T11:40:18Z</time>
      </trkpt>
      <trkpt lat="49.46959" lon="0.95847">
        <ele>125</ele>
        <time>2012-04-03T11:40:36Z</time>
      </trkpt>
      <trkpt lat="49.47029" lon="0.95805">
        <ele>125</ele>
        <time>2012-04-03T11:40:58Z</time>
      </trkpt>
      <trkpt lat="49.47072" lon="0.9579">
        <ele>123</ele>
        <time>2012-04-03T11:44:41Z</time>
      </trkpt>
      <trkpt lat="49.47128" lon="0.9576">
        <ele>123</ele>
        <time>2012-04-03T11:44:55Z</time>
      </trkpt>
      <trkpt lat="49.47176" lon="0.95722">
        <ele>123</ele>
        <time>2012-04-03T11:45:06Z</time>
      </trkpt>
      <trkpt lat="49.4721" lon="0.95657">
        <ele>123</ele>
        <time>2012-04-03T11:45:17Z</time>
      </trkpt>
      <trkpt lat="49.47234" lon="0.95586">
        <ele>122</ele>
        <time>2012-04-03T11:45:24Z</time>
      </trkpt>
      <trkpt lat="49.47252" lon="0.95519">
        <ele>123</ele>
        <time>2012-04-03T11:45:33Z</time>
      </trkpt>
      <trkpt lat="49.47277" lon="0.95457">
        <ele>125</ele>
        <time>2012-04-03T11:45:44Z</time>
      </trkpt>
      <trkpt lat="49.47316" lon="0.95406">
        <ele>124</ele>
        <time>2012-04-03T11:45:57Z</time>
      </trkpt>
      <trkpt lat="49.47357" lon="0.95408">
        <ele>123</ele>
        <time>2012-04-03T11:46:14Z</time>
      </trkpt>
      <trkpt lat="49.47382" lon="0.95476">
        <ele>117</ele>
        <time>2012-04-03T11:46:28Z</time>
      </trkpt>
      <trkpt lat="49.474" lon="0.95554">
        <ele>115</ele>
        <time>2012-04-03T11:46:42Z</time>
      </trkpt>
      <trkpt lat="49.47405" lon="0.95631">
        <ele>117</ele>
        <time>2012-04-03T11:47:00Z</time>
      </trkpt>
      <trkpt lat="49.47414" lon="0.9572">
        <ele>120</ele>
        <time>2012-04-03T11:47:18Z</time>
      </trkpt>
      <trkpt lat="49.47436" lon="0.95805">
        <ele>122</ele>
        <time>2012-04-03T11:47:34Z</time>
      </trkpt>
      <trkpt lat="49.47475" lon="0.95839">
        <ele>123</ele>
        <time>2012-04-03T11:47:53Z</time>
      </trkpt>
      <trkpt lat="49.47532" lon="0.95866">
        <ele>125</ele>
        <time>2012-04-03T11:48:12Z</time>
      </trkpt>
      <trkpt lat="49.47576" lon="0.95899">
        <ele>126</ele>
        <time>2012-04-03T11:48:28Z</time>
      </trkpt>
      <trkpt lat="49.47618" lon="0.95883">
        <ele>126</ele>
        <time>2012-04-03T11:48:41Z</time>
      </trkpt>
      <trkpt lat="49.47663" lon="0.95873">
        <ele>127</ele>
        <time>2012-04-03T11:48:53Z</time>
      </trkpt>
      <trkpt lat="49.47709" lon="0.95884">
        <ele>127</ele>
        <time>2012-04-03T11:49:05Z</time>
      </trkpt>
      <trkpt lat="49.47757" lon="0.95914">
        <ele>128</ele>
        <time>2012-04-03T11:49:18Z</time>
      </trkpt>
      <trkpt lat="49.47803" lon="0.95907">
        <ele>128</ele>
        <time>2012-04-03T11:49:29Z</time>
      </trkpt>
      <trkpt lat="49.47841" lon="0.95865">
        <ele>128</ele>
        <time>2012-04-03T11:49:40Z</time>
      </trkpt>
      <trkpt lat="49.47881" lon="0.9582">
        <ele>127</ele>
        <time>2012-04-03T11:49:50Z</time>
      </trkpt>
      <trkpt lat="49.47918" lon="0.95775">
        <ele>127</ele>
        <time>2012-04-03T11:50:00Z</time>
      </trkpt>
      <trkpt lat="49.47956" lon="0.95725">
        <ele>126</ele>
        <time>2012-04-03T11:50:10Z</time>
      </trkpt>
      <trkpt lat="49.47994" lon="0.95675">
        <ele>126</ele>
        <time>2012-04-03T11:50:20Z</time>
      </trkpt>
      <trkpt lat="49.48028" lon="0.95628">
        <ele>127</ele>
        <time>2012-04-03T11:50:30Z</time>
      </trkpt>
      <trkpt lat="49.48077" lon="0.95546">
        <ele>126</ele>
        <time>2012-04-03T11:50:40Z</time>
      </trkpt>
      <trkpt lat="49.48077" lon="0.95517">
        <ele>126</ele>
        <time>2012-04-03T11:50:52Z</time>
      </trkpt>
      <trkpt lat="49.48056" lon="0.95449">
        <ele>125</ele>
        <time>2012-04-03T11:51:05Z</time>
      </trkpt>
      <trkpt lat="49.48028" lon="0.95393">
        <ele>125</ele>
        <time>2012-04-03T11:51:18Z</time>
      </trkpt>
      <trkpt lat="49.47996" lon="0.95333">
        <ele>124</ele>
        <time>2012-04-03T11:52:47Z</time>
      </trkpt>
      <trkpt lat="49.47964" lon="0.95279">
        <ele>123</ele>
        <time>2012-04-03T11:53:00Z</time>
      </trkpt>
      <trkpt lat="49.47944" lon="0.95236">
        <ele>120</ele>
        <time>2012-04-03T11:53:10Z</time>
      </trkpt>
      <trkpt lat="49.47985" lon="0.9516">
        <ele>122</ele>
        <time>2012-04-03T11:53:19Z</time>
      </trkpt>
      <trkpt lat="49.48008" lon="0.95097">
        <ele>123</ele>
        <time>2012-04-03T11:53:30Z</time>
      </trkpt>
      <trkpt lat="49.48017" lon="0.95028">
        <ele>123</ele>
        <time>2012-04-03T11:53:54Z</time>
      </trkpt>
      <trkpt lat="49.48045" lon="0.9496">
        <ele>123</ele>
        <time>2012-04-03T11:54:07Z</time>
      </trkpt>
      <trkpt lat="49.48067" lon="0.94897">
        <ele>120</ele>
        <time>2012-04-03T11:54:16Z</time>
      </trkpt>
      <trkpt lat="49.48078" lon="0.94821">
        <ele>118</ele>
        <time>2012-04-03T11:54:24Z</time>
      </trkpt>
      <trkpt lat="49.48078" lon="0.9474">
        <ele>115</ele>
        <time>2012-04-03T11:54:34Z</time>
      </trkpt>
      <trkpt lat="49.48092" lon="0.94663">
        <ele>113</ele>
        <time>2012-04-03T11:54:44Z</time>
      </trkpt>
      <trkpt lat="49.4813" lon="0.94617">
        <ele>112</ele>
        <time>2012-04-03T11:54:56Z</time>
      </trkpt>
      <trkpt lat="49.48147" lon="0.9456">
        <ele>109</ele>
        <time>2012-04-03T11:55:09Z</time>
      </trkpt>
      <trkpt lat="49.4813" lon="0.94486">
        <ele>105</ele>
        <time>2012-04-03T11:55:20Z</time>
      </trkpt>
      <trkpt lat="49.48091" lon="0.94382">
        <ele>106</ele>
        <time>2012-04-03T11:55:29Z</time>
      </trkpt>
      <trkpt lat="49.48115" lon="0.94344">
        <ele>106</ele>
        <time>2012-04-03T11:55:41Z</time>
      </trkpt>
      <trkpt lat="49.48124" lon="0.94265">
        <ele>105</ele>
        <time>2012-04-03T11:56:08Z</time>
      </trkpt>
      <trkpt lat="49.48138" lon="0.9419">
        <ele>105</ele>
        <time>2012-04-03T11:56:27Z</time>
      </trkpt>
      <trkpt lat="49.48155" lon="0.94122">
        <ele>104</ele>
        <time>2012-04-03T11:56:38Z</time>
      </trkpt>
      <trkpt lat="49.48161" lon="0.9404">
        <ele>103</ele>
        <time>2012-04-03T11:56:50Z</time>
      </trkpt>
      <trkpt lat="49.48154" lon="0.93965">
        <ele>105</ele>
        <time>2012-04-03T11:57:01Z</time>
      </trkpt>
      <trkpt lat="49.48155" lon="0.93863">
        <ele>107</ele>
        <time>2012-04-03T11:57:11Z</time>
      </trkpt>
      <trkpt lat="49.48181" lon="0.93816">
        <ele>103</ele>
        <time>2012-04-03T11:57:17Z</time>
      </trkpt>
      <trkpt lat="49.48187" lon="0.93736">
        <ele>99</ele>
        <time>2012-04-03T11:57:23Z</time>
      </trkpt>
      <trkpt lat="49.48194" lon="0.93659">
        <ele>96</ele>
        <time>2012-04-03T11:57:29Z</time>
      </trkpt>
      <trkpt lat="49.48214" lon="0.93599">
        <ele>91</ele>
        <time>2012-04-03T11:57:36Z</time>
      </trkpt>
      <trkpt lat="49.48246" lon="0.93541">
        <ele>88</ele>
        <time>2012-04-03T11:57:43Z</time>
      </trkpt>
      <trkpt lat="49.48268" lon="0.93472">
        <ele>87</ele>
        <time>2012-04-03T11:57:50Z</time>
      </trkpt>
      <trkpt lat="49.483" lon="0.93417">
        <ele>91</ele>
        <time>2012-04-03T11:58:01Z</time>
      </trkpt>
      <trkpt lat="49.48328" lon="0.93346">
        <ele>96</ele>
        <time>2012-04-03T11:58:23Z</time>
      </trkpt>
      <trkpt lat="49.48356" lon="0.93282">
        <ele>97</ele>
        <time>2012-04-03T11:58:46Z</time>
      </trkpt>
      <trkpt lat="49.4838" lon="0.93218">
        <ele>95</ele>
        <time>2012-04-03T11:59:04Z</time>
      </trkpt>
      <trkpt lat="49.4838" lon="0.93147">
        <ele>86</ele>
        <time>2012-04-03T11:59:21Z</time>
      </trkpt>
      <trkpt lat="49.48391" lon="0.93072">
        <ele>77</ele>
        <time>2012-04-03T11:59:40Z</time>
      </trkpt>
      <trkpt lat="49.48406" lon="0.92999">
        <ele>69</ele>
        <time>2012-04-03T11:59:52Z</time>
      </trkpt>
      <trkpt lat="49.48426" lon="0.92924">
        <ele>63</ele>
        <time>2012-04-03T11:59:59Z</time>
      </trkpt>
      <trkpt lat="49.48443" lon="0.92863">
        <ele>61</ele>
        <time>2012-04-03T12:00:15Z</time>
      </trkpt>
      <trkpt lat="49.4846" lon="0.9279">
        <ele>59</ele>
        <time>2012-04-03T12:00:22Z</time>
      </trkpt>
      <trkpt lat="49.48479" lon="0.92722">
        <ele>53</ele>
        <time>2012-04-03T12:00:33Z</time>
      </trkpt>
      <trkpt lat="49.48504" lon="0.92705">
        <ele>48</ele>
        <time>2012-04-03T12:00:56Z</time>
      </trkpt>
      <trkpt lat="49.48536" lon="0.92765">
        <ele>37</ele>
        <time>2012-04-03T12:01:05Z</time>
      </trkpt>
      <trkpt lat="49.48562" lon="0.92724">
        <ele>30</ele>
        <time>2012-04-03T12:01:18Z</time>
      </trkpt>
      <trkpt lat="49.48578" lon="0.92655">
        <ele>21</ele>
        <time>2012-04-03T12:01:31Z</time>
      </trkpt>
      <trkpt lat="49.48573" lon="0.92585">
        <ele>15</ele>
        <time>2012-04-03T12:01:46Z</time>
      </trkpt>
      <trkpt lat="49.48552" lon="0.92515">
        <ele>13</ele>
        <time>2012-04-03T12:04:01Z</time>
      </trkpt>
      <trkpt lat="49.48536" lon="0.92448">
        <ele>8</ele>
        <time>2012-04-03T12:04:10Z</time>
      </trkpt>
      <trkpt lat="49.48503" lon="0.92387">
        <ele>6</ele>
        <time>2012-04-03T12:04:18Z</time>
      </trkpt>
      <trkpt lat="49.48464" lon="0.92367">
        <ele>6</ele>
        <time>2012-04-03T12:04:29Z</time>
      </trkpt>
      <trkpt lat="49.48485" lon="0.92277">
        <ele>3</ele>
        <time>2012-04-03T12:04:40Z</time>
      </trkpt>
      <trkpt lat="49.48498" lon="0.92209">
        <ele>5</ele>
        <time>2012-04-03T12:04:51Z</time>
      </trkpt>
      <trkpt lat="49.48513" lon="0.92139">
        <ele>10</ele>
        <time>2012-04-03T12:05:02Z</time>
      </trkpt>
      <trkpt lat="49.48528" lon="0.92069">
        <ele>13</ele>
        <time>2012-04-03T12:05:15Z</time>
      </trkpt>
      <trkpt lat="49.48532" lon="0.91993">
        <ele>15</ele>
        <time>2012-04-03T12:05:24Z</time>
      </trkpt>
      <trkpt lat="49.48534" lon="0.91921">
        <ele>13</ele>
        <time>2012-04-03T12:05:33Z</time>
      </trkpt>
      <trkpt lat="49.48537" lon="0.91846">
        <ele>11</ele>
        <time>2012-04-03T12:05:42Z</time>
      </trkpt>
      <trkpt lat="49.48539" lon="0.91771">
        <ele>13</ele>
        <time>2012-04-03T12:05:51Z</time>
      </trkpt>
      <trkpt lat="49.48543" lon="0.91693">
        <ele>12</ele>
        <time>2012-04-03T12:06:00Z</time>
      </trkpt>
      <trkpt lat="49.48549" lon="0.9162">
        <ele>15</ele>
        <time>2012-04-03T12:06:08Z</time>
      </trkpt>
      <trkpt lat="49.48557" lon="0.91549">
        <ele>19</ele>
        <time>2012-04-03T12:06:16Z</time>
      </trkpt>
      <trkpt lat="49.4857" lon="0.91474">
        <ele>15</ele>
        <time>2012-04-03T12:06:24Z</time>
      </trkpt>
      <trkpt lat="49.48581" lon="0.91402">
        <ele>12</ele>
        <time>2012-04-03T12:06:32Z</time>
      </trkpt>
      <trkpt lat="49.48592" lon="0.91329">
        <ele>19</ele>
        <time>2012-04-03T12:06:40Z</time>
      </trkpt>
      <trkpt lat="49.48602" lon="0.91257">
        <ele>24</ele>
        <time>2012-04-03T12:06:48Z</time>
      </trkpt>
      <trkpt lat="49.4861" lon="0.91184">
        <ele>17</ele>
        <time>2012-04-03T12:06:56Z</time>
      </trkpt>
      <trkpt lat="49.48617" lon="0.91107">
        <ele>15</ele>
        <time>2012-04-03T12:07:04Z</time>
      </trkpt>
      <trkpt lat="49.48623" lon="0.91029">
        <ele>15</ele>
        <time>2012-04-03T12:07:12Z</time>
      </trkpt>
      <trkpt lat="49.48628" lon="0.90952">
        <ele>17</ele>
        <time>2012-04-03T12:07:20Z</time>
      </trkpt>
      <trkpt lat="49.48632" lon="0.90874">
        <ele>18</ele>
        <time>2012-04-03T12:07:28Z</time>
      </trkpt>
      <trkpt lat="49.48638" lon="0.90795">
        <ele>18</ele>
        <time>2012-04-03T12:07:36Z</time>
      </trkpt>
      <trkpt lat="49.48643" lon="0.90718">
        <ele>12</ele>
        <time>2012-04-03T12:07:44Z</time>
      </trkpt>
      <trkpt lat="49.48644" lon="0.9064">
        <ele>12</ele>
        <time>2012-04-03T12:07:52Z</time>
      </trkpt>
      <trkpt lat="49.48645" lon="0.90566">
        <ele>14</ele>
        <time>2012-04-03T12:08:00Z</time>
      </trkpt>
      <trkpt lat="49.48649" lon="0.90488">
        <ele>14</ele>
        <time>2012-04-03T12:08:08Z</time>
      </trkpt>
      <trkpt lat="49.48652" lon="0.90411">
        <ele>13</ele>
        <time>2012-04-03T12:08:16Z</time>
      </trkpt>
      <trkpt lat="49.48655" lon="0.90334">
        <ele>14</ele>
        <time>2012-04-03T12:08:24Z</time>
      </trkpt>
      <trkpt lat="49.48657" lon="0.90257">
        <ele>16</ele>
        <time>2012-04-03T12:08:32Z</time>
      </trkpt>
      <trkpt lat="49.48657" lon="0.90187">
        <ele>17</ele>
        <time>2012-04-03T12:08:39Z</time>
      </trkpt>
      <trkpt lat="49.48655" lon="0.90116">
        <ele>17</ele>
        <time>2012-04-03T12:08:46Z</time>
      </trkpt>
      <trkpt lat="49.48652" lon="0.9004">
        <ele>17</ele>
        <time>2012-04-03T12:08:54Z</time>
      </trkpt>
      <trkpt lat="49.48648" lon="0.89961">
        <ele>15</ele>
        <time>2012-04-03T12:09:02Z</time>
      </trkpt>
      <trkpt lat="49.48644" lon="0.89887">
        <ele>14</ele>
        <time>2012-04-03T12:09:10Z</time>
      </trkpt>
      <trkpt lat="49.48643" lon="0.89837">
        <ele>11</ele>
        <time>2012-04-03T12:09:20Z</time>
      </trkpt>
      <trkpt lat="49.48674" lon="0.89821">
        <ele>13</ele>
      </trkpt>
      <trkpt lat="49.48725" lon="0.89845">
        <ele>14</ele>
        <time>2012-04-03T12:09:33Z</time>
      </trkpt>
      <trkpt lat="49.48733" lon="0.89817">
        <ele>16</ele>
        <time>2012-04-03T12:09:52Z</time>
      </trkpt>
      <trkpt lat="49.48707" lon="0.89748">
        <ele>25</ele>
        <time>2012-04-03T12:10:44Z</time>
      </trkpt>
      <trkpt lat="49.4869" lon="0.89684">
        <ele>32</ele>
        <time>2012-04-03T12:11:47Z</time>
      </trkpt>
      <trkpt lat="49.48679" lon="0.89612">
        <ele>36</ele>
        <time>2012-04-03T12:13:23Z</time>
      </trkpt>
      <trkpt lat="49.48712" lon="0.89559">
        <ele>42</ele>
        <time>2012-04-03T12:13:56Z</time>
      </trkpt>
      <trkpt lat="49.48738" lon="0.89503">
        <ele>44</ele>
        <time>2012-04-03T12:14:14Z</time>
      </trkpt>
      <trkpt lat="49.48748" lon="0.89434">
        <ele>43</ele>
        <time>2012-04-03T12:14:27Z</time>
      </trkpt>
      <trkpt lat="49.48747" lon="0.89359">
        <ele>43</ele>
        <time>2012-04-03T12:14:38Z</time>
      </trkpt>
      <trkpt lat="49.48733" lon="0.89291">
        <ele>41</ele>
        <time>2012-04-03T12:14:50Z</time>
      </trkpt>
      <trkpt lat="49.48714" lon="0.89226">
        <ele>39</ele>
        <time>2012-04-03T12:15:03Z</time>
      </trkpt>
      <trkpt lat="49.48693" lon="0.89152">
        <ele>37</ele>
        <time>2012-04-03T12:15:13Z</time>
      </trkpt>
      <trkpt lat="49.48681" lon="0.89083">
        <ele>34</ele>
        <time>2012-04-03T12:15:21Z</time>
      </trkpt>
      <trkpt lat="49.4867" lon="0.89008">
        <ele>35</ele>
        <time>2012-04-03T12:15:31Z</time>
      </trkpt>
      <trkpt lat="49.48661" lon="0.88936">
        <ele>34</ele>
        <time>2012-04-03T12:15:41Z</time>
      </trkpt>
      <trkpt lat="49.48652" lon="0.88867">
        <ele>30</ele>
        <time>2012-04-03T12:15:53Z</time>
      </trkpt>
      <trkpt lat="49.48641" lon="0.88795">
        <ele>26</ele>
        <time>2012-04-03T12:16:02Z</time>
      </trkpt>
      <trkpt lat="49.48625" lon="0.88731">
        <ele>24</ele>
        <time>2012-04-03T12:16:14Z</time>
      </trkpt>
      <trkpt lat="49.4858" lon="0.88744">
        <ele>24</ele>
        <time>2012-04-03T12:16:21Z</time>
      </trkpt>
      <trkpt lat="49.48545" lon="0.8874">
        <ele>23</ele>
        <time>2012-04-03T12:16:36Z</time>
      </trkpt>
      <trkpt lat="49.48527" lon="0.88676">
        <ele>19</ele>
        <time>2012-04-03T12:16:58Z</time>
      </trkpt>
      <trkpt lat="49.48509" lon="0.88613">
        <ele>19</ele>
        <time>2012-04-03T12:17:21Z</time>
      </trkpt>
      <trkpt lat="49.48495" lon="0.88544">
        <ele>23</ele>
        <time>2012-04-03T12:17:37Z</time>
      </trkpt>
      <trkpt lat="49.4848" lon="0.88476">
        <ele>24</ele>
        <time>2012-04-03T12:18:02Z</time>
      </trkpt>
      <trkpt lat="49.48469" lon="0.88406">
        <ele>27</ele>
        <time>2012-04-03T12:18:31Z</time>
      </trkpt>
      <trkpt lat="49.48455" lon="0.88335">
        <ele>30</ele>
        <time>2012-04-03T12:18:45Z</time>
      </trkpt>
      <trkpt lat="49.48434" lon="0.88277">
        <ele>32</ele>
        <time>2012-04-03T12:19:10Z</time>
      </trkpt>
      <trkpt lat="49.48414" lon="0.88215">
        <ele>35</ele>
        <time>2012-04-03T12:19:26Z</time>
      </trkpt>
      <trkpt lat="49.48385" lon="0.88166">
        <ele>34</ele>
        <time>2012-04-03T12:19:40Z</time>
      </trkpt>
      <trkpt lat="49.48357" lon="0.88101">
        <ele>35</ele>
        <time>2012-04-03T12:19:51Z</time>
      </trkpt>
      <trkpt lat="49.48332" lon="0.88043">
        <ele>32</ele>
        <time>2012-04-03T12:20:01Z</time>
      </trkpt>
      <trkpt lat="49.48311" lon="0.87978">
        <ele>33</ele>
        <time>2012-04-03T12:20:12Z</time>
      </trkpt>
      <trkpt lat="49.48288" lon="0.87911">
        <ele>30</ele>
        <time>2012-04-03T12:20:22Z</time>
      </trkpt>
      <trkpt lat="49.48264" lon="0.87847">
        <ele>27</ele>
        <time>2012-04-03T12:20:31Z</time>
      </trkpt>
      <trkpt lat="49.48236" lon="0.87811">
        <ele>19</ele>
        <time>2012-04-03T12:22:22Z</time>
      </trkpt>
      <trkpt lat="49.48218" lon="0.87747">
        <ele>17</ele>
        <time>2012-04-03T12:22:37Z</time>
      </trkpt>
      <trkpt lat="49.48194" lon="0.87691">
        <ele>14</ele>
        <time>2012-04-03T12:22:58Z</time>
      </trkpt>
      <trkpt lat="49.48209" lon="0.87629">
        <ele>13</ele>
        <time>2012-04-03T12:23:18Z</time>
      </trkpt>
      <trkpt lat="49.48235" lon="0.87623">
        <ele>13</ele>
        <time>2012-04-03T12:23:48Z</time>
      </trkpt>
      <trkpt lat="49.48261" lon="0.87585">
        <ele>12</ele>
        <time>2012-04-03T12:28:10Z</time>
      </trkpt>
      <trkpt lat="49.48289" lon="0.87536">
        <ele>11</ele>
        <time>2012-04-03T12:28:23Z</time>
      </trkpt>
      <trkpt lat="49.48331" lon="0.87498">
        <ele>9</ele>
        <time>2012-04-03T12:28:36Z</time>
      </trkpt>
      <trkpt lat="49.48381" lon="0.87529">
        <ele>10</ele>
        <time>2012-04-03T12:28:46Z</time>
      </trkpt>
      <trkpt lat="49.4843" lon="0.87525">
        <ele>8</ele>
        <time>2012-04-03T12:28:53Z</time>
      </trkpt>
      <trkpt lat="49.48475" lon="0.87495">
        <ele>7</ele>
        <time>2012-04-03T12:29:01Z</time>
      </trkpt>
      <trkpt lat="49.48495" lon="0.8747">
        <ele>7</ele>
        <time>2012-04-03T12:29:33Z</time>
      </trkpt>
      <trkpt lat="49.48519" lon="0.8745">
        <ele>7</ele>
        <time>2012-04-03T12:29:54Z</time>
      </trkpt>
      <trkpt lat="49.48552" lon="0.87405">
        <ele>9</ele>
        <time>2012-04-03T12:30:08Z</time>
      </trkpt>
      <trkpt lat="49.48533" lon="0.8735">
        <ele>9</ele>
        <time>2012-04-03T12:30:20Z</time>
      </trkpt>
      <trkpt lat="49.48509" lon="0.87293">
        <ele>8</ele>
        <time>2012-04-03T12:30:28Z</time>
      </trkpt>
      <trkpt lat="49.48488" lon="0.87227">
        <ele>10</ele>
        <time>2012-04-03T12:30:36Z</time>
      </trkpt>
      <trkpt lat="49.48465" lon="0.87165">
        <ele>11</ele>
        <time>2012-04-03T12:30:45Z</time>
      </trkpt>
      <trkpt lat="49.48443" lon="0.871">
        <ele>15</ele>
        <time>2012-04-03T12:30:55Z</time>
      </trkpt>
      <trkpt lat="49.48406" lon="0.87062">
        <ele>15</ele>
        <time>2012-04-03T12:31:04Z</time>
      </trkpt>
      <trkpt lat="49.48361" lon="0.8704">
        <ele>14</ele>
        <time>2012-04-03T12:31:13Z</time>
      </trkpt>
      <trkpt lat="49.48316" lon="0.87033">
        <ele>13</ele>
        <time>2012-04-03T12:31:23Z</time>
      </trkpt>
      <trkpt lat="49.48272" lon="0.87022">
        <ele>13</ele>
        <time>2012-04-03T12:31:34Z</time>
      </trkpt>
      <trkpt lat="49.48226" lon="0.87004">
        <ele>16</ele>
        <time>2012-04-03T12:31:44Z</time>
      </trkpt>
      <trkpt lat="49.48176" lon="0.86988">
        <ele>17</ele>
        <time>2012-04-03T12:31:55Z</time>
      </trkpt>
      <trkpt lat="49.48129" lon="0.86974">
        <ele>15</ele>
        <time>2012-04-03T12:32:04Z</time>
      </trkpt>
      <trkpt lat="49.48083" lon="0.86948">
        <ele>14</ele>
        <time>2012-04-03T12:32:13Z</time>
      </trkpt>
      <trkpt lat="49.48042" lon="0.86922">
        <ele>14</ele>
        <time>2012-04-03T12:32:27Z</time>
      </trkpt>
      <trkpt lat="49.47997" lon="0.86896">
        <ele>13</ele>
        <time>2012-04-03T12:32:37Z</time>
      </trkpt>
      <trkpt lat="49.47925" lon="0.86855">
        <ele>12</ele>
        <time>2012-04-03T12:32:47Z</time>
      </trkpt>
      <trkpt lat="49.47947" lon="0.86816">
        <ele>15</ele>
        <time>2012-04-03T12:33:05Z</time>
      </trkpt>
      <trkpt lat="49.4796" lon="0.8675">
        <ele>22</ele>
        <time>2012-04-03T12:33:29Z</time>
      </trkpt>
      <trkpt lat="49.47963" lon="0.86681">
        <ele>28</ele>
        <time>2012-04-03T12:34:04Z</time>
      </trkpt>
      <trkpt lat="49.47924" lon="0.8666">
        <ele>28</ele>
        <time>2012-04-03T12:34:26Z</time>
      </trkpt>
      <trkpt lat="49.47873" lon="0.86628">
        <ele>32</ele>
        <time>2012-04-03T12:34:52Z</time>
      </trkpt>
      <trkpt lat="49.47833" lon="0.86588">
        <ele>35</ele>
        <time>2012-04-03T12:35:12Z</time>
      </trkpt>
      <trkpt lat="49.47792" lon="0.86552">
        <ele>38</ele>
        <time>2012-04-03T12:35:36Z</time>
      </trkpt>
      <trkpt lat="49.47753" lon="0.86511">
        <ele>40</ele>
        <time>2012-04-03T12:35:57Z</time>
      </trkpt>
      <trkpt lat="49.47719" lon="0.86463">
        <ele>41</ele>
        <time>2012-04-03T12:36:20Z</time>
      </trkpt>
      <trkpt lat="49.47683" lon="0.86416">
        <ele>43</ele>
        <time>2012-04-03T12:36:42Z</time>
      </trkpt>
      <trkpt lat="49.47655" lon="0.86363">
        <ele>47</ele>
        <time>2012-04-03T12:37:06Z</time>
      </trkpt>
      <trkpt lat="49.47639" lon="0.86298">
        <ele>51</ele>
        <time>2012-04-03T12:37:29Z</time>
      </trkpt>
      <trkpt lat="49.47659" lon="0.86232">
        <ele>55</ele>
        <time>2012-04-03T12:37:53Z</time>
      </trkpt>
      <trkpt lat="49.47669" lon="0.86192">
        <ele>57</ele>
        <time>2012-04-03T12:39:27Z</time>
      </trkpt>
      <trkpt lat="49.477" lon="0.86212">
        <ele>61</ele>
        <time>2012-04-03T12:39:56Z</time>
      </trkpt>
      <trkpt lat="49.47768" lon="0.86118">
        <ele>70</ele>
        <time>2012-04-03T12:40:29Z</time>
      </trkpt>
      <trkpt lat="49.47801" lon="0.86074">
        <ele>74</ele>
        <time>2012-04-03T12:40:56Z</time>
      </trkpt>
      <trkpt lat="49.47835" lon="0.86028">
        <ele>77</ele>
        <time>2012-04-03T12:41:25Z</time>
      </trkpt>
      <trkpt lat="49.47822" lon="0.8597">
        <ele>78</ele>
        <time>2012-04-03T12:43:09Z</time>
      </trkpt>
      <trkpt lat="49.47807" lon="0.85887">
        <ele>79</ele>
        <time>2012-04-03T12:43:25Z</time>
      </trkpt>
      <trkpt lat="49.47797" lon="0.85798">
        <ele>80</ele>
        <time>2012-04-03T12:43:41Z</time>
      </trkpt>
      <trkpt lat="49.47757" lon="0.85741">
        <ele>81</ele>
        <time>2012-04-03T12:43:54Z</time>
      </trkpt>
      <trkpt lat="49.47718" lon="0.85691">
        <ele>81</ele>
        <time>2012-04-03T12:44:06Z</time>
      </trkpt>
      <trkpt lat="49.47703" lon="0.85647">
        <ele>82</ele>
        <time>2012-04-03T12:44:27Z</time>
      </trkpt>
      <trkpt lat="49.47705" lon="0.85577">
        <ele>83</ele>
        <time>2012-04-03T12:44:41Z</time>
      </trkpt>
      <trkpt lat="49.47707" lon="0.85504">
        <ele>84</ele>
        <time>2012-04-03T12:44:53Z</time>
      </trkpt>
      <trkpt lat="49.47706" lon="0.85427">
        <ele>85</ele>
        <time>2012-04-03T12:45:04Z</time>
      </trkpt>
      <trkpt lat="49.47706" lon="0.85344">
        <ele>85</ele>
        <time>2012-04-03T12:45:15Z</time>
      </trkpt>
      <trkpt lat="49.47704" lon="0.8527">
        <ele>84</ele>
        <time>2012-04-03T12:45:25Z</time>
      </trkpt>
      <trkpt lat="49.477" lon="0.85192">
        <ele>84</ele>
        <time>2012-04-03T12:45:35Z</time>
      </trkpt>
      <trkpt lat="49.47698" lon="0.85122">
        <ele>84</ele>
        <time>2012-04-03T12:45:44Z</time>
      </trkpt>
      <trkpt lat="49.47695" lon="0.85047">
        <ele>84</ele>
        <time>2012-04-03T12:45:53Z</time>
      </trkpt>
      <trkpt lat="49.47693" lon="0.84976">
        <ele>83</ele>
        <time>2012-04-03T12:46:01Z</time>
      </trkpt>
      <trkpt lat="49.47679" lon="0.84905">
        <ele>83</ele>
        <time>2012-04-03T12:46:11Z</time>
      </trkpt>
      <trkpt lat="49.47668" lon="0.84832">
        <ele>83</ele>
        <time>2012-04-03T12:46:21Z</time>
      </trkpt>
      <trkpt lat="49.47656" lon="0.84762">
        <ele>82</ele>
        <time>2012-04-03T12:46:30Z</time>
      </trkpt>
      <trkpt lat="49.47641" lon="0.84685">
        <ele>79</ele>
        <time>2012-04-03T12:46:38Z</time>
      </trkpt>
      <trkpt lat="49.47646" lon="0.84616">
        <ele>76</ele>
        <time>2012-04-03T12:46:44Z</time>
      </trkpt>
      <trkpt lat="49.47655" lon="0.84544">
        <ele>74</ele>
        <time>2012-04-03T12:46:50Z</time>
      </trkpt>
      <trkpt lat="49.47667" lon="0.84474">
        <ele>72</ele>
        <time>2012-04-03T12:46:56Z</time>
      </trkpt>
      <trkpt lat="49.47677" lon="0.84401">
        <ele>70</ele>
        <time>2012-04-03T12:47:02Z</time>
      </trkpt>
      <trkpt lat="49.47685" lon="0.84331">
        <ele>68</ele>
        <time>2012-04-03T12:47:10Z</time>
      </trkpt>
      <trkpt lat="49.47693" lon="0.84259">
        <ele>67</ele>
        <time>2012-04-03T12:47:18Z</time>
      </trkpt>
      <trkpt lat="49.47691" lon="0.8418">
        <ele>65</ele>
        <time>2012-04-03T12:47:26Z</time>
      </trkpt>
      <trkpt lat="49.47668" lon="0.84119">
        <ele>63</ele>
        <time>2012-04-03T12:47:33Z</time>
      </trkpt>
      <trkpt lat="49.47659" lon="0.84043">
        <ele>59</ele>
        <time>2012-04-03T12:47:40Z</time>
      </trkpt>
      <trkpt lat="49.47669" lon="0.83968">
        <ele>53</ele>
        <time>2012-04-03T12:47:48Z</time>
      </trkpt>
      <trkpt lat="49.47669" lon="0.83894">
        <ele>44</ele>
        <time>2012-04-03T12:47:57Z</time>
      </trkpt>
      <trkpt lat="49.4768" lon="0.83821">
        <ele>35</ele>
        <time>2012-04-03T12:48:06Z</time>
      </trkpt>
      <trkpt lat="49.47692" lon="0.83759">
        <ele>27</ele>
        <time>2012-04-03T12:48:15Z</time>
      </trkpt>
      <trkpt lat="49.47674" lon="0.837">
        <ele>22</ele>
        <time>2012-04-03T12:48:21Z</time>
      </trkpt>
      <trkpt lat="49.47652" lon="0.83638">
        <ele>20</ele>
        <time>2012-04-03T12:48:26Z</time>
      </trkpt>
      <trkpt lat="49.47627" lon="0.83576">
        <ele>18</ele>
        <time>2012-04-03T12:48:32Z</time>
      </trkpt>
      <trkpt lat="49.47605" lon="0.83515">
        <ele>19</ele>
        <time>2012-04-03T12:48:41Z</time>
      </trkpt>
      <trkpt lat="49.47569" lon="0.8348">
        <ele>20</ele>
        <time>2012-04-03T12:49:15Z</time>
      </trkpt>
      <trkpt lat="49.47552" lon="0.83414">
        <ele>22</ele>
        <time>2012-04-03T12:49:37Z</time>
      </trkpt>
      <trkpt lat="49.47553" lon="0.83341">
        <ele>25</ele>
        <time>2012-04-03T12:50:03Z</time>
      </trkpt>
      <trkpt lat="49.47548" lon="0.8327">
        <ele>27</ele>
        <time>2012-04-03T12:50:24Z</time>
      </trkpt>
      <trkpt lat="49.47548" lon="0.83201">
        <ele>29</ele>
        <time>2012-04-03T12:50:46Z</time>
      </trkpt>
      <trkpt lat="49.47547" lon="0.83126">
        <ele>32</ele>
        <time>2012-04-03T12:51:06Z</time>
      </trkpt>
      <trkpt lat="49.47549" lon="0.83054">
        <ele>36</ele>
        <time>2012-04-03T12:51:30Z</time>
      </trkpt>
      <trkpt lat="49.47546" lon="0.82973">
        <ele>41</ele>
        <time>2012-04-03T12:51:55Z</time>
      </trkpt>
      <trkpt lat="49.47535" lon="0.82896">
        <ele>45</ele>
        <time>2012-04-03T12:52:25Z</time>
      </trkpt>
      <trkpt lat="49.47521" lon="0.82831">
        <ele>46</ele>
        <time>2012-04-03T12:52:50Z</time>
      </trkpt>
      <trkpt lat="49.47499" lon="0.8275">
        <ele>50</ele>
        <time>2012-04-03T12:53:25Z</time>
      </trkpt>
      <trkpt lat="49.47481" lon="0.82667">
        <ele>52</ele>
        <time>2012-04-03T12:53:57Z</time>
      </trkpt>
      <trkpt lat="49.47483" lon="0.82589">
        <ele>56</ele>
        <time>2012-04-03T12:54:24Z</time>
      </trkpt>
      <trkpt lat="49.47475" lon="0.82516">
        <ele>61</ele>
        <time>2012-04-03T12:54:48Z</time>
      </trkpt>
      <trkpt lat="49.47452" lon="0.82449">
        <ele>65</ele>
        <time>2012-04-03T12:55:12Z</time>
      </trkpt>
      <trkpt lat="49.47432" lon="0.82378">
        <ele>68</ele>
        <time>2012-04-03T12:55:43Z</time>
      </trkpt>
      <trkpt lat="49.47408" lon="0.82316">
        <ele>70</ele>
        <time>2012-04-03T12:56:04Z</time>
      </trkpt>
      <trkpt lat="49.47386" lon="0.82256">
        <ele>71</ele>
        <time>2012-04-03T12:57:56Z</time>
      </trkpt>
      <trkpt lat="49.47357" lon="0.82183">
        <ele>72</ele>
        <time>2012-04-03T12:58:12Z</time>
      </trkpt>
      <trkpt lat="49.47388" lon="0.82174">
        <ele>74</ele>
        <time>2012-04-03T12:58:47Z</time>
      </trkpt>
      <trkpt lat="49.47391" lon="0.82161">
        <ele>74</ele>
        <time>2012-04-03T12:59:14Z</time>
      </trkpt>
      <trkpt lat="49.47395" lon="0.82177">
        <ele>74</ele>
        <time>2012-04-03T13:02:55Z</time>
      </trkpt>
      <trkpt lat="49.47433" lon="0.82158">
        <ele>76</ele>
        <time>2012-04-03T13:03:19Z</time>
      </trkpt>
      <trkpt lat="49.47478" lon="0.82139">
        <ele>79</ele>
        <time>2012-04-03T13:03:40Z</time>
      </trkpt>
      <trkpt lat="49.47525" lon="0.82127">
        <ele>81</ele>
        <time>2012-04-03T13:04:03Z</time>
      </trkpt>
      <trkpt lat="49.47576" lon="0.82112">
        <ele>84</ele>
        <time>2012-04-03T13:04:29Z</time>
      </trkpt>
      <trkpt lat="49.47629" lon="0.82089">
        <ele>87</ele>
        <time>2012-04-03T13:04:53Z</time>
      </trkpt>
      <trkpt lat="49.47684" lon="0.82073">
        <ele>89</ele>
        <time>2012-04-03T13:05:17Z</time>
      </trkpt>
      <trkpt lat="49.47736" lon="0.82065">
        <ele>91</ele>
        <time>2012-04-03T13:05:43Z</time>
      </trkpt>
      <trkpt lat="49.47787" lon="0.82058">
        <ele>92</ele>
        <time>2012-04-03T13:06:06Z</time>
      </trkpt>
      <trkpt lat="49.4785" lon="0.82064">
        <ele>95</ele>
        <time>2012-04-03T13:06:28Z</time>
      </trkpt>
      <trkpt lat="49.47899" lon="0.82036">
        <ele>98</ele>
        <time>2012-04-03T13:06:57Z</time>
      </trkpt>
      <trkpt lat="49.47938" lon="0.81989">
        <ele>101</ele>
        <time>2012-04-03T13:07:26Z</time>
      </trkpt>
      <trkpt lat="49.47949" lon="0.81915">
        <ele>102</ele>
        <time>2012-04-03T13:07:43Z</time>
      </trkpt>
      <trkpt lat="49.47988" lon="0.81845">
        <ele>102</ele>
        <time>2012-04-03T13:07:59Z</time>
      </trkpt>
      <trkpt lat="49.48033" lon="0.81788">
        <ele>101</ele>
        <time>2012-04-03T13:08:20Z</time>
      </trkpt>
      <trkpt lat="49.48092" lon="0.81748">
        <ele>101</ele>
        <time>2012-04-03T13:09:00Z</time>
      </trkpt>
      <trkpt lat="49.4815" lon="0.81735">
        <ele>103</ele>
        <time>2012-04-03T13:09:23Z</time>
      </trkpt>
      <trkpt lat="49.48205" lon="0.81738">
        <ele>104</ele>
        <time>2012-04-03T13:09:40Z</time>
      </trkpt>
      <trkpt lat="49.48261" lon="0.81732">
        <ele>105</ele>
        <time>2012-04-03T13:09:56Z</time>
      </trkpt>
      <trkpt lat="49.48307" lon="0.81697">
        <ele>105</ele>
        <time>2012-04-03T13:10:11Z</time>
      </trkpt>
      <trkpt lat="49.4832" lon="0.81623">
        <ele>104</ele>
        <time>2012-04-03T13:10:30Z</time>
      </trkpt>
      <trkpt lat="49.48307" lon="0.81544">
        <ele>99</ele>
        <time>2012-04-03T13:10:42Z</time>
      </trkpt>
      <trkpt lat="49.48292" lon="0.81456">
        <ele>88</ele>
        <time>2012-04-03T13:11:03Z</time>
      </trkpt>
      <trkpt lat="49.48275" lon="0.81366">
        <ele>72</ele>
        <time>2012-04-03T13:11:30Z</time>
      </trkpt>
      <trkpt lat="49.4831" lon="0.81318">
        <ele>68</ele>
        <time>2012-04-03T13:12:16Z</time>
      </trkpt>
      <trkpt lat="49.48361" lon="0.81275">
        <ele>68</ele>
        <time>2012-04-03T13:12:32Z</time>
      </trkpt>
      <trkpt lat="49.484" lon="0.81226">
        <ele>68</ele>
        <time>2012-04-03T13:12:47Z</time>
      </trkpt>
      <trkpt lat="49.48443" lon="0.81176">
        <ele>67</ele>
        <time>2012-04-03T13:13:00Z</time>
      </trkpt>
      <trkpt lat="49.48502" lon="0.81143">
        <ele>66</ele>
        <time>2012-04-03T13:13:17Z</time>
      </trkpt>
      <trkpt lat="49.48565" lon="0.81124">
        <ele>65</ele>
        <time>2012-04-03T13:13:34Z</time>
      </trkpt>
      <trkpt lat="49.48632" lon="0.81106">
        <ele>64</ele>
        <time>2012-04-03T13:13:49Z</time>
      </trkpt>
      <trkpt lat="49.48705" lon="0.8107">
        <ele>63</ele>
        <time>2012-04-03T13:14:57Z</time>
      </trkpt>
      <trkpt lat="49.48739" lon="0.81014">
        <ele>62</ele>
        <time>2012-04-03T13:15:12Z</time>
      </trkpt>
      <trkpt lat="49.48764" lon="0.80945">
        <ele>61</ele>
        <time>2012-04-03T13:15:24Z</time>
      </trkpt>
      <trkpt lat="49.48798" lon="0.80895">
        <ele>58</ele>
        <time>2012-04-03T13:15:35Z</time>
      </trkpt>
      <trkpt lat="49.4886" lon="0.80885">
        <ele>59</ele>
        <time>2012-04-03T13:15:45Z</time>
      </trkpt>
      <trkpt lat="49.48912" lon="0.80866">
        <ele>57</ele>
        <time>2012-04-03T13:15:56Z</time>
      </trkpt>
      <trkpt lat="49.48957" lon="0.8082">
        <ele>58</ele>
        <time>2012-04-03T13:16:23Z</time>
      </trkpt>
      <trkpt lat="49.49006" lon="0.80781">
        <ele>63</ele>
        <time>2012-04-03T13:17:24Z</time>
      </trkpt>
      <trkpt lat="49.49049" lon="0.80729">
        <ele>71</ele>
        <time>2012-04-03T13:18:39Z</time>
      </trkpt>
      <trkpt lat="49.491" lon="0.80686">
        <ele>81</ele>
        <time>2012-04-03T13:19:27Z</time>
      </trkpt>
      <trkpt lat="49.49106" lon="0.80656">
        <ele>83</ele>
        <time>2012-04-03T13:20:10Z</time>
      </trkpt>
      <trkpt lat="49.4911" lon="0.80578">
        <ele>80</ele>
        <time>2012-04-03T13:20:26Z</time>
      </trkpt>
      <trkpt lat="49.49155" lon="0.80518">
        <ele>76</ele>
        <time>2012-04-03T13:20:40Z</time>
      </trkpt>
      <trkpt lat="49.49199" lon="0.80448">
        <ele>71</ele>
        <time>2012-04-03T13:20:49Z</time>
      </trkpt>
      <trkpt lat="49.4923" lon="0.80389">
        <ele>67</ele>
        <time>2012-04-03T13:20:56Z</time>
      </trkpt>
      <trkpt lat="49.49266" lon="0.80337">
        <ele>65</ele>
        <time>2012-04-03T13:21:04Z</time>
      </trkpt>
      <trkpt lat="49.49309" lon="0.80295">
        <ele>64</ele>
        <time>2012-04-03T13:21:11Z</time>
      </trkpt>
      <trkpt lat="49.49348" lon="0.80238">
        <ele>58</ele>
        <time>2012-04-03T13:21:19Z</time>
      </trkpt>
      <trkpt lat="49.49399" lon="0.80193">
        <ele>57</ele>
        <time>2012-04-03T13:21:29Z</time>
      </trkpt>
      <trkpt lat="49.49445" lon="0.80143">
        <ele>54</ele>
        <time>2012-04-03T13:21:37Z</time>
      </trkpt>
      <trkpt lat="49.49487" lon="0.80086">
        <ele>50</ele>
        <time>2012-04-03T13:21:44Z</time>
      </trkpt>
      <trkpt lat="49.49534" lon="0.80058">
        <ele>50</ele>
        <time>2012-04-03T13:21:58Z</time>
      </trkpt>
      <trkpt lat="49.49586" lon="0.80025">
        <ele>50</ele>
        <time>2012-04-03T13:22:19Z</time>
      </trkpt>
      <trkpt lat="49.49604" lon="0.7995">
        <ele>45</ele>
        <time>2012-04-03T13:22:31Z</time>
      </trkpt>
      <trkpt lat="49.49622" lon="0.7987">
        <ele>44</ele>
        <time>2012-04-03T13:22:39Z</time>
      </trkpt>
      <trkpt lat="49.49653" lon="0.79817">
        <ele>44</ele>
        <time>2012-04-03T13:22:51Z</time>
      </trkpt>
      <trkpt lat="49.49709" lon="0.79778">
        <ele>48</ele>
        <time>2012-04-03T13:23:23Z</time>
      </trkpt>
      <trkpt lat="49.49758" lon="0.79743">
        <ele>52</ele>
        <time>2012-04-03T13:23:48Z</time>
      </trkpt>
      <trkpt lat="49.49818" lon="0.79742">
        <ele>58</ele>
        <time>2012-04-03T13:24:22Z</time>
      </trkpt>
      <trkpt lat="49.4986" lon="0.79801">
        <ele>59</ele>
        <time>2012-04-03T13:24:41Z</time>
      </trkpt>
      <trkpt lat="49.49899" lon="0.79844">
        <ele>59</ele>
        <time>2012-04-03T13:24:54Z</time>
      </trkpt>
      <trkpt lat="49.49951" lon="0.79839">
        <ele>54</ele>
        <time>2012-04-03T13:25:03Z</time>
      </trkpt>
      <trkpt lat="49.50003" lon="0.7984">
        <ele>52</ele>
        <time>2012-04-03T13:25:10Z</time>
      </trkpt>
      <trkpt lat="49.50055" lon="0.79851">
        <ele>48</ele>
        <time>2012-04-03T13:25:16Z</time>
      </trkpt>
      <trkpt lat="49.50107" lon="0.79852">
        <ele>46</ele>
        <time>2012-04-03T13:25:27Z</time>
      </trkpt>
      <trkpt lat="49.50162" lon="0.79823">
        <ele>50</ele>
        <time>2012-04-03T13:28:52Z</time>
      </trkpt>
      <trkpt lat="49.50135" lon="0.79748">
        <ele>51</ele>
        <time>2012-04-03T13:29:44Z</time>
      </trkpt>
      <trkpt lat="49.50106" lon="0.79687">
        <ele>56</ele>
        <time>2012-04-03T13:30:16Z</time>
      </trkpt>
      <trkpt lat="49.50072" lon="0.79621">
        <ele>59</ele>
        <time>2012-04-03T13:30:42Z</time>
      </trkpt>
      <trkpt lat="49.50045" lon="0.79543">
        <ele>59</ele>
        <time>2012-04-03T13:31:03Z</time>
      </trkpt>
      <trkpt lat="49.50038" lon="0.79468">
        <ele>58</ele>
        <time>2012-04-03T13:31:25Z</time>
      </trkpt>
      <trkpt lat="49.50047" lon="0.79388">
        <ele>59</ele>
        <time>2012-04-03T13:31:39Z</time>
      </trkpt>
      <trkpt lat="49.50077" lon="0.79325">
        <ele>61</ele>
        <time>2012-04-03T13:31:51Z</time>
      </trkpt>
      <trkpt lat="49.50108" lon="0.79263">
        <ele>62</ele>
        <time>2012-04-03T13:32:05Z</time>
      </trkpt>
      <trkpt lat="49.50142" lon="0.79187">
        <ele>59</ele>
        <time>2012-04-03T13:32:19Z</time>
      </trkpt>
      <trkpt lat="49.50196" lon="0.79151">
        <ele>60</ele>
        <time>2012-04-03T13:32:36Z</time>
      </trkpt>
      <trkpt lat="49.50265" lon="0.79071">
        <ele>59</ele>
        <time>2012-04-03T13:32:54Z</time>
      </trkpt>
      <trkpt lat="49.50312" lon="0.78996">
        <ele>57</ele>
        <time>2012-04-03T13:33:10Z</time>
      </trkpt>
      <trkpt lat="49.50362" lon="0.78924">
        <ele>54</ele>
        <time>2012-04-03T13:33:19Z</time>
      </trkpt>
      <trkpt lat="49.50403" lon="0.78871">
        <ele>50</ele>
        <time>2012-04-03T13:33:26Z</time>
      </trkpt>
      <trkpt lat="49.50445" lon="0.7883">
        <ele>47</ele>
        <time>2012-04-03T13:33:32Z</time>
      </trkpt>
      <trkpt lat="49.50492" lon="0.7883">
        <ele>42</ele>
        <time>2012-04-03T13:33:39Z</time>
      </trkpt>
      <trkpt lat="49.50536" lon="0.78875">
        <ele>38</ele>
        <time>2012-04-03T13:33:46Z</time>
      </trkpt>
      <trkpt lat="49.50565" lon="0.78942">
        <ele>34</ele>
        <time>2012-04-03T13:33:52Z</time>
      </trkpt>
      <trkpt lat="49.50611" lon="0.78971">
        <ele>38</ele>
        <time>2012-04-03T13:34:02Z</time>
      </trkpt>
      <trkpt lat="49.50631" lon="0.78899">
        <ele>39</ele>
        <time>2012-04-03T13:34:38Z</time>
      </trkpt>
      <trkpt lat="49.50641" lon="0.78825">
        <ele>40</ele>
        <time>2012-04-03T13:35:08Z</time>
      </trkpt>
      <trkpt lat="49.50652" lon="0.78753">
        <ele>46</ele>
        <time>2012-04-03T13:35:37Z</time>
      </trkpt>
      <trkpt lat="49.5064" lon="0.78686">
        <ele>48</ele>
        <time>2012-04-03T13:36:11Z</time>
      </trkpt>
      <trkpt lat="49.5065" lon="0.78602">
        <ele>53</ele>
        <time>2012-04-03T13:36:40Z</time>
      </trkpt>
      <trkpt lat="49.50681" lon="0.78548">
        <ele>54</ele>
        <time>2012-04-03T13:37:11Z</time>
      </trkpt>
      <trkpt lat="49.50735" lon="0.78512">
        <ele>57</ele>
        <time>2012-04-03T13:37:51Z</time>
      </trkpt>
      <trkpt lat="49.50775" lon="0.78478">
        <ele>63</ele>
        <time>2012-04-03T13:38:20Z</time>
      </trkpt>
      <trkpt lat="49.5081" lon="0.78429">
        <ele>64</ele>
        <time>2012-04-03T13:39:15Z</time>
      </trkpt>
      <trkpt lat="49.50865" lon="0.78399">
        <ele>69</ele>
        <time>2012-04-03T13:39:53Z</time>
      </trkpt>
      <trkpt lat="49.50912" lon="0.78397">
        <ele>72</ele>
        <time>2012-04-03T13:41:43Z</time>
      </trkpt>
      <trkpt lat="49.50965" lon="0.78377">
        <ele>83</ele>
        <time>2012-04-03T13:42:42Z</time>
      </trkpt>
      <trkpt lat="49.50984" lon="0.78311">
        <ele>82</ele>
        <time>2012-04-03T13:42:57Z</time>
      </trkpt>
      <trkpt lat="49.51015" lon="0.78256">
        <ele>84</ele>
        <time>2012-04-03T13:43:12Z</time>
      </trkpt>
      <trkpt lat="49.51045" lon="0.78185">
        <ele>79</ele>
        <time>2012-04-03T13:43:25Z</time>
      </trkpt>
      <trkpt lat="49.51086" lon="0.78121">
        <ele>76</ele>
        <time>2012-04-03T13:43:36Z</time>
      </trkpt>
      <trkpt lat="49.51122" lon="0.78075">
        <ele>68</ele>
        <time>2012-04-03T13:43:49Z</time>
      </trkpt>
      <trkpt lat="49.51163" lon="0.78104">
        <ele>68</ele>
        <time>2012-04-03T13:44:04Z</time>
      </trkpt>
      <trkpt lat="49.512" lon="0.78162">
        <ele>67</ele>
        <time>2012-04-03T13:44:59Z</time>
      </trkpt>
      <trkpt lat="49.51215" lon="0.78238">
        <ele>72</ele>
        <time>2012-04-03T13:45:37Z</time>
      </trkpt>
      <trkpt lat="49.51226" lon="0.78309">
        <ele>78</ele>
        <time>2012-04-03T13:46:56Z</time>
      </trkpt>
      <trkpt lat="49.5123" lon="0.78391">
        <ele>87</ele>
        <time>2012-04-03T13:47:47Z</time>
      </trkpt>
      <trkpt lat="49.51236" lon="0.78462">
        <ele>96</ele>
        <time>2012-04-03T13:48:47Z</time>
      </trkpt>
      <trkpt lat="49.51245" lon="0.78533">
        <ele>102</ele>
        <time>2012-04-03T13:49:54Z</time>
      </trkpt>
      <trkpt lat="49.51257" lon="0.78607">
        <ele>106</ele>
        <time>2012-04-03T13:50:30Z</time>
      </trkpt>
      <trkpt lat="49.51302" lon="0.7862">
        <ele>109</ele>
        <time>2012-04-03T13:50:56Z</time>
      </trkpt>
      <trkpt lat="49.51353" lon="0.78631">
        <ele>110</ele>
        <time>2012-04-03T13:51:16Z</time>
      </trkpt>
      <trkpt lat="49.51397" lon="0.78613">
        <ele>110</ele>
        <time>2012-04-03T13:51:31Z</time>
      </trkpt>
      <trkpt lat="49.51443" lon="0.78589">
        <ele>110</ele>
        <time>2012-04-03T13:51:44Z</time>
      </trkpt>
      <trkpt lat="49.51493" lon="0.78563">
        <ele>110</ele>
        <time>2012-04-03T13:51:58Z</time>
      </trkpt>
      <trkpt lat="49.51543" lon="0.78541">
        <ele>108</ele>
        <time>2012-04-03T13:52:09Z</time>
      </trkpt>
      <trkpt lat="49.51599" lon="0.78514">
        <ele>106</ele>
        <time>2012-04-03T13:52:20Z</time>
      </trkpt>
      <trkpt lat="49.51648" lon="0.785">
        <ele>105</ele>
        <time>2012-04-03T13:55:37Z</time>
      </trkpt>
      <trkpt lat="49.51675" lon="0.78554">
        <ele>106</ele>
        <time>2012-04-03T13:55:56Z</time>
      </trkpt>
      <trkpt lat="49.5172" lon="0.78558">
        <ele>107</ele>
        <time>2012-04-03T13:56:11Z</time>
      </trkpt>
      <trkpt lat="49.51768" lon="0.78564">
        <ele>109</ele>
        <time>2012-04-03T13:56:22Z</time>
      </trkpt>
      <trkpt lat="49.5181" lon="0.78569">
        <ele>111</ele>
        <time>2012-04-03T13:56:33Z</time>
      </trkpt>
      <trkpt lat="49.51855" lon="0.78568">
        <ele>111</ele>
        <time>2012-04-03T13:56:48Z</time>
      </trkpt>
      <trkpt lat="49.51851" lon="0.78486">
        <ele>109</ele>
        <time>2012-04-03T13:57:06Z</time>
      </trkpt>
      <trkpt lat="49.51853" lon="0.7839">
        <ele>108</ele>
        <time>2012-04-03T13:57:33Z</time>
      </trkpt>
      <trkpt lat="49.51857" lon="0.78305">
        <ele>107</ele>
        <time>2012-04-03T13:57:45Z</time>
      </trkpt>
      <trkpt lat="49.51856" lon="0.78205">
        <ele>105</ele>
        <time>2012-04-03T13:57:56Z</time>
      </trkpt>
      <trkpt lat="49.51862" lon="0.78124">
        <ele>104</ele>
        <time>2012-04-03T13:58:06Z</time>
      </trkpt>
      <trkpt lat="49.51882" lon="0.7805">
        <ele>104</ele>
        <time>2012-04-03T13:58:16Z</time>
      </trkpt>
      <trkpt lat="49.5189" lon="0.7798">
        <ele>104</ele>
        <time>2012-04-03T13:58:27Z</time>
      </trkpt>
      <trkpt lat="49.519" lon="0.77911">
        <ele>104</ele>
        <time>2012-04-03T13:58:38Z</time>
      </trkpt>
      <trkpt lat="49.51936" lon="0.77871">
        <ele>102</ele>
        <time>2012-04-03T13:58:49Z</time>
      </trkpt>
      <trkpt lat="49.5198" lon="0.77818">
        <ele>100</ele>
        <time>2012-04-03T13:59:03Z</time>
      </trkpt>
      <trkpt lat="49.52012" lon="0.77758">
        <ele>101</ele>
        <time>2012-04-03T13:59:13Z</time>
      </trkpt>
      <trkpt lat="49.52053" lon="0.77707">
        <ele>103</ele>
        <time>2012-04-03T13:59:34Z</time>
      </trkpt>
      <trkpt lat="49.52105" lon="0.77654">
        <ele>105</ele>
        <time>2012-04-03T14:00:27Z</time>
      </trkpt>
      <trkpt lat="49.52155" lon="0.77617">
        <ele>105</ele>
        <time>2012-04-03T14:01:24Z</time>
      </trkpt>
      <trkpt lat="49.52204" lon="0.77587">
        <ele>106</ele>
        <time>2012-04-03T14:01:40Z</time>
      </trkpt>
      <trkpt lat="49.52256" lon="0.77552">
        <ele>105</ele>
        <time>2012-04-03T14:01:55Z</time>
      </trkpt>
      <trkpt lat="49.52311" lon="0.77539">
        <ele>104</ele>
        <time>2012-04-03T14:02:05Z</time>
      </trkpt>
      <trkpt lat="49.52359" lon="0.77532">
        <ele>103</ele>
        <time>2012-04-03T14:02:20Z</time>
      </trkpt>
      <trkpt lat="49.52419" lon="0.77516">
        <ele>100</ele>
        <time>2012-04-03T14:02:37Z</time>
      </trkpt>
      <trkpt lat="49.52461" lon="0.77473">
        <ele>98</ele>
        <time>2012-04-03T14:02:45Z</time>
      </trkpt>
      <trkpt lat="49.52518" lon="0.77469">
        <ele>102</ele>
        <time>2012-04-03T14:03:13Z</time>
      </trkpt>
      <trkpt lat="49.52569" lon="0.77499">
        <ele>103</ele>
        <time>2012-04-03T14:03:35Z</time>
      </trkpt>
      <trkpt lat="49.52584" lon="0.77451">
        <ele>102</ele>
        <time>2012-04-03T14:03:55Z</time>
      </trkpt>
      <trkpt lat="49.52597" lon="0.77381">
        <ele>99</ele>
        <time>2012-04-03T14:04:08Z</time>
      </trkpt>
      <trkpt lat="49.52618" lon="0.77306">
        <ele>95</ele>
        <time>2012-04-03T14:04:18Z</time>
      </trkpt>
      <trkpt lat="49.52647" lon="0.77244">
        <ele>89</ele>
        <time>2012-04-03T14:04:25Z</time>
      </trkpt>
      <trkpt lat="49.52678" lon="0.7718">
        <ele>80</ele>
        <time>2012-04-03T14:04:34Z</time>
      </trkpt>
      <trkpt lat="49.52698" lon="0.77111">
        <ele>71</ele>
        <time>2012-04-03T14:04:46Z</time>
      </trkpt>
      <trkpt lat="49.52705" lon="0.77034">
        <ele>63</ele>
        <time>2012-04-03T14:04:56Z</time>
      </trkpt>
      <trkpt lat="49.52701" lon="0.76956">
        <ele>55</ele>
        <time>2012-04-03T14:05:06Z</time>
      </trkpt>
      <trkpt lat="49.52716" lon="0.76871">
        <ele>42</ele>
        <time>2012-04-03T14:05:56Z</time>
      </trkpt>
      <trkpt lat="49.52738" lon="0.76825">
        <ele>32</ele>
        <time>2012-04-03T14:06:30Z</time>
      </trkpt>
      <trkpt lat="49.52713" lon="0.7676">
        <ele>25</ele>
        <time>2012-04-03T14:06:43Z</time>
      </trkpt>
      <trkpt lat="49.5267" lon="0.76723">
        <ele>21</ele>
        <time>2012-04-03T14:06:54Z</time>
      </trkpt>
      <trkpt lat="49.52677" lon="0.76687">
        <ele>19</ele>
        <time>2012-04-03T14:07:47Z</time>
      </trkpt>
      <trkpt lat="49.52728" lon="0.76685">
        <ele>17</ele>
        <time>2012-04-03T14:07:58Z</time>
      </trkpt>
      <trkpt lat="49.52778" lon="0.76681">
        <ele>14</ele>
        <time>2012-04-03T14:08:07Z</time>
      </trkpt>
      <trkpt lat="49.52804" lon="0.76729">
        <ele>14</ele>
        <time>2012-04-03T14:08:50Z</time>
      </trkpt>
      <trkpt lat="49.52824" lon="0.76792">
        <ele>14</ele>
        <time>2012-04-03T14:09:07Z</time>
      </trkpt>
      <trkpt lat="49.52739" lon="0.76676">
        <ele>16.551941</ele>
        <time>2012-05-04T08:37:05Z</time>
      </trkpt>
      <trkpt lat="49.52762" lon="0.76674">
        <ele>15.167922</ele>
        <time>2012-05-04T08:42:00Z</time>
      </trkpt>
      <trkpt lat="49.52781" lon="0.7667">
        <ele>13.744875</ele>
        <time>2012-05-04T08:42:17Z</time>
      </trkpt>
      <trkpt lat="49.52801" lon="0.76668">
        <ele>12.149437</ele>
        <time>2012-05-04T08:42:31Z</time>
      </trkpt>
      <trkpt lat="49.52794" lon="0.76607">
        <ele>11.546263</ele>
        <time>2012-05-04T08:42:51Z</time>
      </trkpt>
      <trkpt lat="49.52778" lon="0.76533">
        <ele>10.8025</ele>
        <time>2012-05-04T08:43:01Z</time>
      </trkpt>
      <trkpt lat="49.52755" lon="0.7647">
        <ele>13.0175</ele>
        <time>2012-05-04T08:43:10Z</time>
      </trkpt>
      <trkpt lat="49.52738" lon="0.76401">
        <ele>13.5125</ele>
        <time>2012-05-04T08:43:19Z</time>
      </trkpt>
      <trkpt lat="49.52726" lon="0.76334">
        <ele>15.13625</ele>
        <time>2012-05-04T08:43:28Z</time>
      </trkpt>
      <trkpt lat="49.52716" lon="0.76271">
        <ele>16.182501</ele>
        <time>2012-05-04T08:43:37Z</time>
      </trkpt>
      <trkpt lat="49.52705" lon="0.76202">
        <ele>15.82725</ele>
        <time>2012-05-04T08:43:46Z</time>
      </trkpt>
      <trkpt lat="49.52695" lon="0.76133">
        <ele>16.1175</ele>
        <time>2012-05-04T08:43:55Z</time>
      </trkpt>
      <trkpt lat="49.52674" lon="0.76069">
        <ele>16.555544</ele>
        <time>2012-05-04T08:44:05Z</time>
      </trkpt>
      <trkpt lat="49.52636" lon="0.76035">
        <ele>18.047657</ele>
        <time>2012-05-04T08:44:13Z</time>
      </trkpt>
      <trkpt lat="49.52596" lon="0.76019">
        <ele>18.275</ele>
        <time>2012-05-04T08:44:20Z</time>
      </trkpt>
      <trkpt lat="49.52552" lon="0.75999">
        <ele>17.286982</ele>
        <time>2012-05-04T08:44:27Z</time>
      </trkpt>
      <trkpt lat="49.52504" lon="0.75979">
        <ele>15.05775</ele>
        <time>2012-05-04T08:44:35Z</time>
      </trkpt>
      <trkpt lat="49.52461" lon="0.75961">
        <ele>13.255625</ele>
        <time>2012-05-04T08:44:42Z</time>
      </trkpt>
      <trkpt lat="49.52411" lon="0.75941">
        <ele>11.706407</ele>
        <time>2012-05-04T08:44:49Z</time>
      </trkpt>
      <trkpt lat="49.52363" lon="0.75922">
        <ele>10.87625</ele>
        <time>2012-05-04T08:44:56Z</time>
      </trkpt>
      <trkpt lat="49.52314" lon="0.75902">
        <ele>11.816522</ele>
        <time>2012-05-04T08:45:04Z</time>
      </trkpt>
      <trkpt lat="49.52293" lon="0.75888">
        <ele>11.299469</ele>
        <time>2012-05-04T08:45:24Z</time>
      </trkpt>
      <trkpt lat="49.52263" lon="0.75855">
        <ele>8.470578</ele>
        <time>2012-05-04T08:45:56Z</time>
      </trkpt>
      <trkpt lat="49.52265" lon="0.75779">
        <ele>5.350313</ele>
        <time>2012-05-04T08:46:05Z</time>
      </trkpt>
      <trkpt lat="49.52275" lon="0.75706">
        <ele>5</ele>
        <time>2012-05-04T08:46:15Z</time>
      </trkpt>
      <trkpt lat="49.5228" lon="0.75636">
        <ele>5</ele>
        <time>2012-05-04T08:46:23Z</time>
      </trkpt>
      <trkpt lat="49.5227" lon="0.75571">
        <ele>5</ele>
        <time>2012-05-04T08:46:33Z</time>
      </trkpt>
      <trkpt lat="49.52275" lon="0.75507">
        <ele>5</ele>
        <time>2012-05-04T08:46:45Z</time>
      </trkpt>
      <trkpt lat="49.52279" lon="0.75485">
        <ele>5</ele>
        <time>2012-05-04T08:47:10Z</time>
      </trkpt>
      <trkpt lat="49.52293" lon="0.75412">
        <ele>4.165</ele>
        <time>2012-05-04T08:47:23Z</time>
      </trkpt>
      <trkpt lat="49.52307" lon="0.75342">
        <ele>3.171688</ele>
        <time>2012-05-04T08:47:33Z</time>
      </trkpt>
      <trkpt lat="49.52319" lon="0.75274">
        <ele>3</ele>
        <time>2012-05-04T08:47:42Z</time>
      </trkpt>
      <trkpt lat="49.52325" lon="0.75205">
        <ele>3</ele>
        <time>2012-05-04T08:47:51Z</time>
      </trkpt>
      <trkpt lat="49.52326" lon="0.75129">
        <ele>3.0525</ele>
        <time>2012-05-04T08:48:00Z</time>
      </trkpt>
      <trkpt lat="49.52328" lon="0.75054">
        <ele>5.318975</ele>
        <time>2012-05-04T08:48:09Z</time>
      </trkpt>
      <trkpt lat="49.52331" lon="0.74989">
        <ele>11.0321</ele>
        <time>2012-05-04T08:48:18Z</time>
      </trkpt>
      <trkpt lat="49.52339" lon="0.74928">
        <ele>18.135187</ele>
        <time>2012-05-04T08:48:29Z</time>
      </trkpt>
      <trkpt lat="49.5234" lon="0.74853">
        <ele>20.689137</ele>
        <time>2012-05-04T08:48:39Z</time>
      </trkpt>
      <trkpt lat="49.52345" lon="0.74774">
        <ele>23.018749</ele>
        <time>2012-05-04T08:48:49Z</time>
      </trkpt>
      <trkpt lat="49.52349" lon="0.74699">
        <ele>23.391306</ele>
        <time>2012-05-04T08:48:58Z</time>
      </trkpt>
      <trkpt lat="49.52352" lon="0.74622">
        <ele>23.39113</ele>
        <time>2012-05-04T08:49:07Z</time>
      </trkpt>
      <trkpt lat="49.52356" lon="0.74551">
        <ele>24.448978</ele>
        <time>2012-05-04T08:49:15Z</time>
      </trkpt>
      <trkpt lat="49.5236" lon="0.7448">
        <ele>25.461876</ele>
        <time>2012-05-04T08:49:23Z</time>
      </trkpt>
      <trkpt lat="49.52363" lon="0.74407">
        <ele>25.771484</ele>
        <time>2012-05-04T08:49:31Z</time>
      </trkpt>
      <trkpt lat="49.52364" lon="0.74336">
        <ele>22.749844</ele>
        <time>2012-05-04T08:49:39Z</time>
      </trkpt>
      <trkpt lat="49.52369" lon="0.74258">
        <ele>15.901288</ele>
        <time>2012-05-04T08:49:48Z</time>
      </trkpt>
      <trkpt lat="49.52373" lon="0.74185">
        <ele>8.913306</ele>
        <time>2012-05-04T08:49:57Z</time>
      </trkpt>
      <trkpt lat="49.5238" lon="0.74113">
        <ele>14.1751</ele>
        <time>2012-05-04T08:50:06Z</time>
      </trkpt>
      <trkpt lat="49.52387" lon="0.74042">
        <ele>17.490101</ele>
        <time>2012-05-04T08:50:15Z</time>
      </trkpt>
      <trkpt lat="49.52393" lon="0.73972">
        <ele>17.616707</ele>
        <time>2012-05-04T08:50:25Z</time>
      </trkpt>
      <trkpt lat="49.52402" lon="0.73902">
        <ele>18.818388</ele>
        <time>2012-05-04T08:50:35Z</time>
      </trkpt>
      <trkpt lat="49.52412" lon="0.73831">
        <ele>20.094675</ele>
        <time>2012-05-04T08:50:44Z</time>
      </trkpt>
      <trkpt lat="49.52421" lon="0.73756">
        <ele>20.789537</ele>
        <time>2012-05-04T08:50:53Z</time>
      </trkpt>
      <trkpt lat="49.52428" lon="0.73685">
        <ele>20.477396</ele>
        <time>2012-05-04T08:51:02Z</time>
      </trkpt>
      <trkpt lat="49.52436" lon="0.73613">
        <ele>20.393749</ele>
        <time>2012-05-04T08:51:11Z</time>
      </trkpt>
      <trkpt lat="49.52441" lon="0.73543">
        <ele>20.587482</ele>
        <time>2012-05-04T08:51:20Z</time>
      </trkpt>
      <trkpt lat="49.52449" lon="0.73466">
        <ele>20.99375</ele>
        <time>2012-05-04T08:51:29Z</time>
      </trkpt>
      <trkpt lat="49.52456" lon="0.73397">
        <ele>20.664293</ele>
        <time>2012-05-04T08:51:38Z</time>
      </trkpt>
      <trkpt lat="49.52463" lon="0.73327">
        <ele>20.119375</ele>
        <time>2012-05-04T08:51:47Z</time>
      </trkpt>
      <trkpt lat="49.5247" lon="0.73259">
        <ele>19.087738</ele>
        <time>2012-05-04T08:51:56Z</time>
      </trkpt>
      <trkpt lat="49.52477" lon="0.73189">
        <ele>16.781094</ele>
        <time>2012-05-04T08:52:05Z</time>
      </trkpt>
      <trkpt lat="49.52484" lon="0.73118">
        <ele>11.4615</ele>
        <time>2012-05-04T08:52:14Z</time>
      </trkpt>
      <trkpt lat="49.52484" lon="0.73043">
        <ele>8.334188</ele>
        <time>2012-05-04T08:52:23Z</time>
      </trkpt>
      <trkpt lat="49.52483" lon="0.7297">
        <ele>9.39375</ele>
        <time>2012-05-04T08:52:32Z</time>
      </trkpt>
      <trkpt lat="49.52482" lon="0.72897">
        <ele>9.243196</ele>
        <time>2012-05-04T08:52:43Z</time>
      </trkpt>
      <trkpt lat="49.52469" lon="0.72832">
        <ele>6.972266</ele>
        <time>2012-05-04T08:52:57Z</time>
      </trkpt>
      <trkpt lat="49.52446" lon="0.72769">
        <ele>5.534375</ele>
        <time>2012-05-04T08:53:07Z</time>
      </trkpt>
      <trkpt lat="49.52448" lon="0.72695">
        <ele>5.51</ele>
        <time>2012-05-04T08:53:18Z</time>
      </trkpt>
      <trkpt lat="49.52448" lon="0.72619">
        <ele>5.53</ele>
        <time>2012-05-04T08:53:28Z</time>
      </trkpt>
      <trkpt lat="49.52449" lon="0.7255">
        <ele>5.011859</ele>
        <time>2012-05-04T08:53:38Z</time>
      </trkpt>
      <trkpt lat="49.52449" lon="0.7248">
        <ele>5</ele>
        <time>2012-05-04T08:53:48Z</time>
      </trkpt>
      <trkpt lat="49.52452" lon="0.72407">
        <ele>5</ele>
        <time>2012-05-04T08:53:58Z</time>
      </trkpt>
      <trkpt lat="49.52479" lon="0.72313">
        <ele>6.055031</ele>
        <time>2012-05-04T08:57:29Z</time>
      </trkpt>
      <trkpt lat="49.52546" lon="0.7227">
        <ele>8.169047</ele>
        <time>2012-05-04T08:57:39Z</time>
      </trkpt>
      <trkpt lat="49.5253" lon="0.72227">
        <ele>17.880625</ele>
        <time>2012-05-04T08:57:51Z</time>
      </trkpt>
      <trkpt lat="49.52516" lon="0.72148">
        <ele>31.357412</ele>
        <time>2012-05-04T08:58:03Z</time>
      </trkpt>
      <trkpt lat="49.52582" lon="0.72082">
        <ele>41.513786</ele>
        <time>2012-05-04T08:58:18Z</time>
      </trkpt>
      <trkpt lat="49.52635" lon="0.72032">
        <ele>37.844963</ele>
        <time>2012-05-04T08:58:36Z</time>
      </trkpt>
      <trkpt lat="49.52632" lon="0.71979">
        <ele>42.35817</ele>
        <time>2012-05-04T08:59:01Z</time>
      </trkpt>
      <trkpt lat="49.52631" lon="0.71936">
        <ele>42.354389</ele>
        <time>2012-05-04T08:59:31Z</time>
      </trkpt>
      <trkpt lat="49.52622" lon="0.71881">
        <ele>45.747433</ele>
        <time>2012-05-04T09:00:03Z</time>
      </trkpt>
      <trkpt lat="49.52604" lon="0.71767">
        <ele>54.731663</ele>
        <time>2012-05-04T09:00:38Z</time>
      </trkpt>
      <trkpt lat="49.52593" lon="0.71699">
        <ele>60.736809</ele>
        <time>2012-05-04T09:01:15Z</time>
      </trkpt>
      <trkpt lat="49.52627" lon="0.71729">
        <ele>56.195709</ele>
        <time>2012-05-04T09:01:55Z</time>
      </trkpt>
      <trkpt lat="49.52653" lon="0.7169">
        <ele>63.400223</ele>
        <time>2012-05-04T09:03:53Z</time>
      </trkpt>
      <trkpt lat="49.52683" lon="0.71637">
        <ele>72.017975</ele>
        <time>2012-05-04T09:07:24Z</time>
      </trkpt>
      <trkpt lat="49.5271" lon="0.71659">
        <ele>70.089378</ele>
        <time>2012-05-04T09:10:40Z</time>
      </trkpt>
      <trkpt lat="49.52755" lon="0.71651">
        <ele>63.311874</ele>
        <time>2012-05-04T09:10:49Z</time>
      </trkpt>
      <trkpt lat="49.52785" lon="0.71586">
        <ele>59.070469</ele>
        <time>2012-05-04T09:10:58Z</time>
      </trkpt>
      <trkpt lat="49.52806" lon="0.71516">
        <ele>59.464588</ele>
        <time>2012-05-04T09:11:05Z</time>
      </trkpt>
      <trkpt lat="49.52837" lon="0.71453">
        <ele>57.78413</ele>
        <time>2012-05-04T09:11:11Z</time>
      </trkpt>
      <trkpt lat="49.52857" lon="0.71392">
        <ele>58.298969</ele>
        <time>2012-05-04T09:11:16Z</time>
      </trkpt>
      <trkpt lat="49.52877" lon="0.71326">
        <ele>58.015427</ele>
        <time>2012-05-04T09:11:22Z</time>
      </trkpt>
      <trkpt lat="49.52869" lon="0.71261">
        <ele>61.054852</ele>
        <time>2012-05-04T09:11:42Z</time>
      </trkpt>
      <trkpt lat="49.52851" lon="0.71186">
        <ele>65.72625</ele>
        <time>2012-05-04T09:12:10Z</time>
      </trkpt>
      <trkpt lat="49.52827" lon="0.71118">
        <ele>73.845436</ele>
        <time>2012-05-04T09:12:38Z</time>
      </trkpt>
      <trkpt lat="49.5281" lon="0.71049">
        <ele>76.735954</ele>
        <time>2012-05-04T09:13:04Z</time>
      </trkpt>
      <trkpt lat="49.52834" lon="0.70993">
        <ele>78.868095</ele>
        <time>2012-05-04T09:13:22Z</time>
      </trkpt>
      <trkpt lat="49.5286" lon="0.70935">
        <ele>82.970901</ele>
        <time>2012-05-04T09:13:51Z</time>
      </trkpt>
      <trkpt lat="49.52885" lon="0.70878">
        <ele>89.159653</ele>
        <time>2012-05-04T09:14:27Z</time>
      </trkpt>
      <trkpt lat="49.52911" lon="0.70819">
        <ele>94.825623</ele>
        <time>2012-05-04T09:15:01Z</time>
      </trkpt>
      <trkpt lat="49.5292" lon="0.70757">
        <ele>99.258812</ele>
        <time>2012-05-04T09:15:32Z</time>
      </trkpt>
      <trkpt lat="49.5294" lon="0.70729">
        <ele>101.078751</ele>
        <time>2012-05-04T09:16:01Z</time>
      </trkpt>
      <trkpt lat="49.52952" lon="0.70807">
        <ele>104.353783</ele>
        <time>2012-05-04T09:16:26Z</time>
      </trkpt>
      <trkpt lat="49.52962" lon="0.70889">
        <ele>108.094063</ele>
        <time>2012-05-04T09:16:52Z</time>
      </trkpt>
      <trkpt lat="49.53003" lon="0.70916">
        <ele>113.037498</ele>
        <time>2012-05-04T09:17:20Z</time>
      </trkpt>
      <trkpt lat="49.53051" lon="0.70911">
        <ele>116.35128</ele>
        <time>2012-05-04T09:17:42Z</time>
      </trkpt>
      <trkpt lat="49.53104" lon="0.70871">
        <ele>119.02375</ele>
        <time>2012-05-04T09:18:01Z</time>
      </trkpt>
      <trkpt lat="49.53133" lon="0.70814">
        <ele>120.472244</ele>
        <time>2012-05-04T09:18:17Z</time>
      </trkpt>
      <trkpt lat="49.53169" lon="0.70763">
        <ele>120.603951</ele>
        <time>2012-05-04T09:18:29Z</time>
      </trkpt>
      <trkpt lat="49.5321" lon="0.70721">
        <ele>118.527496</ele>
        <time>2012-05-04T09:18:45Z</time>
      </trkpt>
      <trkpt lat="49.53255" lon="0.70706">
        <ele>119.488625</ele>
        <time>2012-05-04T09:19:08Z</time>
      </trkpt>
      <trkpt lat="49.53308" lon="0.70699">
        <ele>121.952187</ele>
        <time>2012-05-04T09:19:28Z</time>
      </trkpt>
      <trkpt lat="49.53355" lon="0.70707">
        <ele>122.270622</ele>
        <time>2012-05-04T09:19:46Z</time>
      </trkpt>
      <trkpt lat="49.53401" lon="0.70713">
        <ele>122.166878</ele>
        <time>2012-05-04T09:20:01Z</time>
      </trkpt>
      <trkpt lat="49.53448" lon="0.70715">
        <ele>122.073235</ele>
        <time>2012-05-04T09:20:14Z</time>
      </trkpt>
      <trkpt lat="49.53499" lon="0.70719">
        <ele>121.504997</ele>
        <time>2012-05-04T09:20:26Z</time>
      </trkpt>
      <trkpt lat="49.53545" lon="0.70732">
        <ele>120.485001</ele>
        <time>2012-05-04T09:20:37Z</time>
      </trkpt>
      <trkpt lat="49.53599" lon="0.70738">
        <ele>119.053284</ele>
        <time>2012-05-04T09:20:47Z</time>
      </trkpt>
      <trkpt lat="49.53651" lon="0.70747">
        <ele>117.170639</ele>
        <time>2012-05-04T09:20:56Z</time>
      </trkpt>
      <trkpt lat="49.53699" lon="0.70752">
        <ele>115.089996</ele>
        <time>2012-05-04T09:21:04Z</time>
      </trkpt>
      <trkpt lat="49.53746" lon="0.70726">
        <ele>112.206535</ele>
        <time>2012-05-04T09:21:12Z</time>
      </trkpt>
      <trkpt lat="49.53776" lon="0.70662">
        <ele>110.574997</ele>
        <time>2012-05-04T09:21:19Z</time>
      </trkpt>
      <trkpt lat="49.53785" lon="0.70591">
        <ele>108.51989</ele>
        <time>2012-05-04T09:21:26Z</time>
      </trkpt>
      <trkpt lat="49.53784" lon="0.70521">
        <ele>103.588371</ele>
        <time>2012-05-04T09:21:35Z</time>
      </trkpt>
      <trkpt lat="49.53784" lon="0.70448">
        <ele>94.822983</ele>
        <time>2012-05-04T09:21:45Z</time>
      </trkpt>
      <trkpt lat="49.53806" lon="0.70382">
        <ele>85.875862</ele>
        <time>2012-05-04T09:21:56Z</time>
      </trkpt>
      <trkpt lat="49.53841" lon="0.70358">
        <ele>81.757896</ele>
        <time>2012-05-04T09:24:25Z</time>
      </trkpt>
      <trkpt lat="49.53887" lon="0.70343">
        <ele>78.943497</ele>
        <time>2012-05-04T09:24:41Z</time>
      </trkpt>
      <trkpt lat="49.53894" lon="0.70272">
        <ele>85.836052</ele>
        <time>2012-05-04T09:25:20Z</time>
      </trkpt>
      <trkpt lat="49.53872" lon="0.70198">
        <ele>93.51355</ele>
        <time>2012-05-04T09:26:07Z</time>
      </trkpt>
      <trkpt lat="49.53856" lon="0.70124">
        <ele>99.12439</ele>
        <time>2012-05-04T09:26:51Z</time>
      </trkpt>
      <trkpt lat="49.53836" lon="0.70043">
        <ele>103.961746</ele>
        <time>2012-05-04T09:27:30Z</time>
      </trkpt>
      <trkpt lat="49.53838" lon="0.6997">
        <ele>105.276001</ele>
        <time>2012-05-04T09:27:59Z</time>
      </trkpt>
      <trkpt lat="49.53832" lon="0.69894">
        <ele>101.229622</ele>
        <time>2012-05-04T09:28:27Z</time>
      </trkpt>
      <trkpt lat="49.53821" lon="0.69818">
        <ele>94.171127</ele>
        <time>2012-05-04T09:28:41Z</time>
      </trkpt>
      <trkpt lat="49.53798" lon="0.69746">
        <ele>94.129997</ele>
        <time>2012-05-04T09:28:51Z</time>
      </trkpt>
      <trkpt lat="49.53775" lon="0.69684">
        <ele>99.16082</ele>
        <time>2012-05-04T09:29:05Z</time>
      </trkpt>
      <trkpt lat="49.53731" lon="0.69639">
        <ele>104.286102</ele>
        <time>2012-05-04T09:29:37Z</time>
      </trkpt>
      <trkpt lat="49.53696" lon="0.69592">
        <ele>107.046364</ele>
        <time>2012-05-04T09:30:06Z</time>
      </trkpt>
      <trkpt lat="49.5368" lon="0.69575">
        <ele>108.716003</ele>
        <time>2012-05-04T09:32:15Z</time>
      </trkpt>
      <trkpt lat="49.53725" lon="0.69606">
        <ele>106.168839</ele>
        <time>2012-05-04T09:32:53Z</time>
      </trkpt>
      <trkpt lat="49.53766" lon="0.69636">
        <ele>103.442657</ele>
        <time>2012-05-04T09:33:11Z</time>
      </trkpt>
      <trkpt lat="49.53751" lon="0.6963">
        <ele>104.365395</ele>
        <time>2012-05-04T09:33:37Z</time>
      </trkpt>
      <trkpt lat="49.53706" lon="0.69599">
        <ele>106.530602</ele>
        <time>2012-05-04T09:34:00Z</time>
      </trkpt>
      <trkpt lat="49.5373" lon="0.6956">
        <ele>110.308746</ele>
        <time>2012-05-04T09:35:27Z</time>
      </trkpt>
      <trkpt lat="49.53778" lon="0.69526">
        <ele>110.462936</ele>
        <time>2012-05-04T09:36:06Z</time>
      </trkpt>
      <trkpt lat="49.53816" lon="0.69482">
        <ele>109.978889</ele>
        <time>2012-05-04T09:36:24Z</time>
      </trkpt>
      <trkpt lat="49.53849" lon="0.69423">
        <ele>107.738647</ele>
        <time>2012-05-04T09:36:38Z</time>
      </trkpt>
      <trkpt lat="49.53886" lon="0.69364">
        <ele>101.433998</ele>
        <time>2012-05-04T09:36:50Z</time>
      </trkpt>
      <trkpt lat="49.53895" lon="0.69309">
        <ele>101.377342</ele>
        <time>2012-05-04T09:37:54Z</time>
      </trkpt>
      <trkpt lat="49.53876" lon="0.69242">
        <ele>107.747711</ele>
        <time>2012-05-04T09:38:48Z</time>
      </trkpt>
      <trkpt lat="49.53876" lon="0.69166">
        <ele>111.918755</ele>
        <time>2012-05-04T09:39:15Z</time>
      </trkpt>
      <trkpt lat="49.53867" lon="0.69091">
        <ele>114.176659</ele>
        <time>2012-05-04T09:39:40Z</time>
      </trkpt>
      <trkpt lat="49.53857" lon="0.6902">
        <ele>114.552048</ele>
        <time>2012-05-04T09:40:00Z</time>
      </trkpt>
      <trkpt lat="49.53844" lon="0.68951">
        <ele>113.115623</ele>
        <time>2012-05-04T09:40:19Z</time>
      </trkpt>
      <trkpt lat="49.53849" lon="0.68879">
        <ele>109.615288</ele>
        <time>2012-05-04T09:40:32Z</time>
      </trkpt>
      <trkpt lat="49.53865" lon="0.68801">
        <ele>107.618347</ele>
        <time>2012-05-04T09:40:41Z</time>
      </trkpt>
      <trkpt lat="49.5389" lon="0.68733">
        <ele>109.587395</ele>
        <time>2012-05-04T09:40:50Z</time>
      </trkpt>
      <trkpt lat="49.53898" lon="0.68653">
        <ele>113.301872</ele>
        <time>2012-05-04T09:41:14Z</time>
      </trkpt>
      <trkpt lat="49.53908" lon="0.68577">
        <ele>116.371872</ele>
        <time>2012-05-04T09:41:41Z</time>
      </trkpt>
      <trkpt lat="49.5393" lon="0.68503">
        <ele>116.433968</ele>
        <time>2012-05-04T09:42:09Z</time>
      </trkpt>
      <trkpt lat="49.53963" lon="0.68434">
        <ele>113.542915</ele>
        <time>2012-05-04T09:45:10Z</time>
      </trkpt>
      <trkpt lat="49.54008" lon="0.68386">
        <ele>111.878601</ele>
        <time>2012-05-04T09:45:25Z</time>
      </trkpt>
      <trkpt lat="49.54042" lon="0.68323">
        <ele>112.824379</ele>
        <time>2012-05-04T09:45:41Z</time>
      </trkpt>
      <trkpt lat="49.54061" lon="0.68252">
        <ele>114.477501</ele>
        <time>2012-05-04T09:46:02Z</time>
      </trkpt>
      <trkpt lat="49.54082" lon="0.68182">
        <ele>114.381096</ele>
        <time>2012-05-04T09:46:25Z</time>
      </trkpt>
      <trkpt lat="49.54095" lon="0.681">
        <ele>112.785149</ele>
        <time>2012-05-04T09:46:43Z</time>
      </trkpt>
      <trkpt lat="49.54121" lon="0.68034">
        <ele>110.882469</ele>
        <time>2012-05-04T09:46:54Z</time>
      </trkpt>
      <trkpt lat="49.54154" lon="0.67972">
        <ele>109.077499</ele>
        <time>2012-05-04T09:47:03Z</time>
      </trkpt>
      <trkpt lat="49.54179" lon="0.67904">
        <ele>107.815002</ele>
        <time>2012-05-04T09:47:46Z</time>
      </trkpt>
      <trkpt lat="49.54216" lon="0.67852">
        <ele>106.301796</ele>
        <time>2012-05-04T09:48:01Z</time>
      </trkpt>
      <trkpt lat="49.54262" lon="0.6782">
        <ele>108.500702</ele>
        <time>2012-05-04T09:48:19Z</time>
      </trkpt>
      <trkpt lat="49.54294" lon="0.67765">
        <ele>111.791565</ele>
        <time>2012-05-04T09:48:41Z</time>
      </trkpt>
      <trkpt lat="49.54281" lon="0.67717">
        <ele>114.493752</ele>
        <time>2012-05-04T09:49:00Z</time>
      </trkpt>
      <trkpt lat="49.54242" lon="0.67684">
        <ele>116.357498</ele>
        <time>2012-05-04T09:49:18Z</time>
      </trkpt>
      <trkpt lat="49.54202" lon="0.67653">
        <ele>118.046875</ele>
        <time>2012-05-04T09:49:36Z</time>
      </trkpt>
      <trkpt lat="49.54161" lon="0.6762">
        <ele>118.620003</ele>
        <time>2012-05-04T09:49:55Z</time>
      </trkpt>
      <trkpt lat="49.5412" lon="0.67584">
        <ele>119</ele>
        <time>2012-05-04T09:50:15Z</time>
      </trkpt>
      <trkpt lat="49.54111" lon="0.67534">
        <ele>119</ele>
        <time>2012-05-04T09:50:38Z</time>
      </trkpt>
      <trkpt lat="49.54138" lon="0.67477">
        <ele>119</ele>
        <time>2012-05-04T09:50:55Z</time>
      </trkpt>
      <trkpt lat="49.54165" lon="0.67413">
        <ele>118.03875</ele>
        <time>2012-05-04T09:51:08Z</time>
      </trkpt>
      <trkpt lat="49.5419" lon="0.67352">
        <ele>116.111252</ele>
        <time>2012-05-04T09:51:17Z</time>
      </trkpt>
      <trkpt lat="49.5422" lon="0.67292">
        <ele>113.372498</ele>
        <time>2012-05-04T09:51:26Z</time>
      </trkpt>
      <trkpt lat="49.54248" lon="0.67231">
        <ele>110.147499</ele>
        <time>2012-05-04T09:51:34Z</time>
      </trkpt>
      <trkpt lat="49.54282" lon="0.67181">
        <ele>107.294998</ele>
        <time>2012-05-04T09:51:40Z</time>
      </trkpt>
      <trkpt lat="49.54323" lon="0.67139">
        <ele>102.037811</ele>
        <time>2012-05-04T09:51:47Z</time>
      </trkpt>
      <trkpt lat="49.54321" lon="0.67073">
        <ele>95.614288</ele>
        <time>2012-05-04T09:51:54Z</time>
      </trkpt>
      <trkpt lat="49.54341" lon="0.67016">
        <ele>88.824684</ele>
        <time>2012-05-04T09:52:02Z</time>
      </trkpt>
      <trkpt lat="49.54367" lon="0.67063">
        <ele>91.888878</ele>
        <time>2012-05-04T09:52:13Z</time>
      </trkpt>
      <trkpt lat="49.544" lon="0.67007">
        <ele>82.227066</ele>
        <time>2012-05-04T09:52:20Z</time>
      </trkpt>
      <trkpt lat="49.54381" lon="0.66949">
        <ele>76.723</ele>
        <time>2012-05-04T09:52:54Z</time>
      </trkpt>
      <trkpt lat="49.54336" lon="0.66951">
        <ele>76.921928</ele>
        <time>2012-05-04T09:54:59Z</time>
      </trkpt>
      <trkpt lat="49.54286" lon="0.66968">
        <ele>74.951599</ele>
        <time>2012-05-04T09:55:06Z</time>
      </trkpt>
      <trkpt lat="49.54236" lon="0.66989">
        <ele>72.964478</ele>
        <time>2012-05-04T09:55:12Z</time>
      </trkpt>
      <trkpt lat="49.5423" lon="0.66968">
        <ele>68.489815</ele>
        <time>2012-05-04T09:55:28Z</time>
      </trkpt>
      <trkpt lat="49.54277" lon="0.66926">
        <ele>66.007339</ele>
        <time>2012-05-04T09:55:36Z</time>
      </trkpt>
      <trkpt lat="49.54317" lon="0.66882">
        <ele>61.300781</ele>
        <time>2012-05-04T09:55:42Z</time>
      </trkpt>
      <trkpt lat="49.54355" lon="0.66837">
        <ele>55.093586</ele>
        <time>2012-05-04T09:55:50Z</time>
      </trkpt>
      <trkpt lat="49.54405" lon="0.66827">
        <ele>53.099987</ele>
        <time>2012-05-04T09:55:58Z</time>
      </trkpt>
      <trkpt lat="49.5445" lon="0.66818">
        <ele>49.883343</ele>
        <time>2012-05-04T09:56:08Z</time>
      </trkpt>
      <trkpt lat="49.54488" lon="0.66784">
        <ele>48.332939</ele>
        <time>2012-05-04T09:56:48Z</time>
      </trkpt>
      <trkpt lat="49.54533" lon="0.66746">
        <ele>44.671844</ele>
        <time>2012-05-04T09:56:56Z</time>
      </trkpt>
      <trkpt lat="49.54577" lon="0.66708">
        <ele>43.0658</ele>
        <time>2012-05-04T09:57:03Z</time>
      </trkpt>
      <trkpt lat="49.54619" lon="0.6666">
        <ele>39.840801</ele>
        <time>2012-05-04T09:57:10Z</time>
      </trkpt>
      <trkpt lat="49.54638" lon="0.66626">
        <ele>37.736294</ele>
        <time>2012-05-04T09:57:20Z</time>
      </trkpt>
      <trkpt lat="49.54629" lon="0.666">
        <ele>37.423058</ele>
        <time>2012-05-04T09:57:32Z</time>
      </trkpt>
      <trkpt lat="49.54579" lon="0.66525">
        <ele>40.332577</ele>
        <time>2012-05-04T09:57:43Z</time>
      </trkpt>
      <trkpt lat="49.54554" lon="0.6647">
        <ele>41.622402</ele>
        <time>2012-05-04T09:57:53Z</time>
      </trkpt>
      <trkpt lat="49.54537" lon="0.66407">
        <ele>43.788433</ele>
        <time>2012-05-04T09:58:03Z</time>
      </trkpt>
      <trkpt lat="49.54536" lon="0.66329">
        <ele>46.333824</ele>
        <time>2012-05-04T09:58:13Z</time>
      </trkpt>
      <trkpt lat="49.54547" lon="0.66256">
        <ele>47.645264</ele>
        <time>2012-05-04T09:58:23Z</time>
      </trkpt>
      <trkpt lat="49.54561" lon="0.66188">
        <ele>50.0256</ele>
        <time>2012-05-04T09:58:33Z</time>
      </trkpt>
      <trkpt lat="49.54565" lon="0.66119">
        <ele>47.755699</ele>
        <time>2012-05-04T09:58:45Z</time>
      </trkpt>
      <trkpt lat="49.54538" lon="0.66085">
        <ele>43.053562</ele>
        <time>2012-05-04T09:59:04Z</time>
      </trkpt>
      <trkpt lat="49.54497" lon="0.66065">
        <ele>43.006939</ele>
        <time>2012-05-04T09:59:30Z</time>
      </trkpt>
      <trkpt lat="49.54453" lon="0.66049">
        <ele>46.958126</ele>
        <time>2012-05-04T09:59:55Z</time>
      </trkpt>
      <trkpt lat="49.54416" lon="0.66005">
        <ele>50.104576</ele>
        <time>2012-05-04T10:00:20Z</time>
      </trkpt>
      <trkpt lat="49.54378" lon="0.65956">
        <ele>54.82198</ele>
        <time>2012-05-04T10:00:48Z</time>
      </trkpt>
      <trkpt lat="49.54341" lon="0.65894">
        <ele>57.876877</ele>
        <time>2012-05-04T10:01:14Z</time>
      </trkpt>
      <trkpt lat="49.54299" lon="0.65833">
        <ele>60.6138</ele>
        <time>2012-05-04T10:01:39Z</time>
      </trkpt>
      <trkpt lat="49.54279" lon="0.6576">
        <ele>59.771938</ele>
        <time>2012-05-04T10:03:36Z</time>
      </trkpt>
      <trkpt lat="49.5428" lon="0.65692">
        <ele>62.841545</ele>
        <time>2012-05-04T10:03:58Z</time>
      </trkpt>
      <trkpt lat="49.54261" lon="0.65629">
        <ele>64.771202</ele>
        <time>2012-05-04T10:04:22Z</time>
      </trkpt>
      <trkpt lat="49.54243" lon="0.65565">
        <ele>68.980659</ele>
        <time>2012-05-04T10:04:45Z</time>
      </trkpt>
      <trkpt lat="49.54218" lon="0.65498">
        <ele>70.922646</ele>
        <time>2012-05-04T10:05:17Z</time>
      </trkpt>
      <trkpt lat="49.54187" lon="0.65424">
        <ele>77.64576</ele>
        <time>2012-05-04T10:06:39Z</time>
      </trkpt>
      <trkpt lat="49.54151" lon="0.65359">
        <ele>81.227844</ele>
        <time>2012-05-04T10:07:11Z</time>
      </trkpt>
      <trkpt lat="49.54112" lon="0.65286">
        <ele>84.066475</ele>
        <time>2012-05-04T10:07:44Z</time>
      </trkpt>
      <trkpt lat="49.54074" lon="0.65218">
        <ele>87.038147</ele>
        <time>2012-05-04T10:08:24Z</time>
      </trkpt>
      <trkpt lat="49.54045" lon="0.65149">
        <ele>92.129997</ele>
        <time>2012-05-04T10:08:52Z</time>
      </trkpt>
      <trkpt lat="49.54019" lon="0.65078">
        <ele>93.921188</ele>
        <time>2012-05-04T10:09:25Z</time>
      </trkpt>
      <trkpt lat="49.53998" lon="0.65009">
        <ele>96.23436</ele>
        <time>2012-05-04T10:09:53Z</time>
      </trkpt>
      <trkpt lat="49.53988" lon="0.64927">
        <ele>99.264755</ele>
        <time>2012-05-04T10:10:29Z</time>
      </trkpt>
      <trkpt lat="49.53974" lon="0.64848">
        <ele>100.815231</ele>
        <time>2012-05-04T10:11:03Z</time>
      </trkpt>
      <trkpt lat="49.53961" lon="0.64784">
        <ele>105.601875</ele>
        <time>2012-05-04T10:12:17Z</time>
      </trkpt>
      <trkpt lat="49.53945" lon="0.64705">
        <ele>109.422501</ele>
        <time>2012-05-04T10:12:58Z</time>
      </trkpt>
      <trkpt lat="49.53917" lon="0.64633">
        <ele>112.292747</ele>
        <time>2012-05-04T10:13:34Z</time>
      </trkpt>
      <trkpt lat="49.53887" lon="0.64579">
        <ele>115.040001</ele>
        <time>2012-05-04T10:14:14Z</time>
      </trkpt>
      <trkpt lat="49.53851" lon="0.64532">
        <ele>120.271378</ele>
        <time>2012-05-04T10:14:46Z</time>
      </trkpt>
      <trkpt lat="49.53825" lon="0.64475">
        <ele>122.897202</ele>
        <time>2012-05-04T10:15:15Z</time>
      </trkpt>
      <trkpt lat="49.53803" lon="0.64415">
        <ele>124.661118</ele>
        <time>2012-05-04T10:15:40Z</time>
      </trkpt>
      <trkpt lat="49.5378" lon="0.64353">
        <ele>126.143234</ele>
        <time>2012-05-04T10:16:02Z</time>
      </trkpt>
      <trkpt lat="49.53754" lon="0.64295">
        <ele>127.995499</ele>
        <time>2012-05-04T10:16:25Z</time>
      </trkpt>
      <trkpt lat="49.53729" lon="0.64235">
        <ele>129.693451</ele>
        <time>2012-05-04T10:16:53Z</time>
      </trkpt>
      <trkpt lat="49.53699" lon="0.64182">
        <ele>130.500793</ele>
        <time>2012-05-04T10:17:15Z</time>
      </trkpt>
      <trkpt lat="49.53669" lon="0.64131">
        <ele>133.143143</ele>
        <time>2012-05-04T10:17:33Z</time>
      </trkpt>
      <trkpt lat="49.53637" lon="0.64081">
        <ele>135.002151</ele>
        <time>2012-05-04T10:17:48Z</time>
      </trkpt>
      <trkpt lat="49.53608" lon="0.64027">
        <ele>136.940948</ele>
        <time>2012-05-04T10:18:04Z</time>
      </trkpt>
      <trkpt lat="49.53584" lon="0.63965">
        <ele>138.766632</ele>
        <time>2012-05-04T10:18:21Z</time>
      </trkpt>
      <trkpt lat="49.53553" lon="0.6391">
        <ele>141.055069</ele>
        <time>2012-05-04T10:18:37Z</time>
      </trkpt>
      <trkpt lat="49.53522" lon="0.63855">
        <ele>142.926254</ele>
        <time>2012-05-04T10:18:54Z</time>
      </trkpt>
      <trkpt lat="49.53496" lon="0.63796">
        <ele>144.6875</ele>
        <time>2012-05-04T10:19:12Z</time>
      </trkpt>
      <trkpt lat="49.5347" lon="0.63735">
        <ele>146.470078</ele>
        <time>2012-05-04T10:19:28Z</time>
      </trkpt>
      <trkpt lat="49.53447" lon="0.6367">
        <ele>148.091888</ele>
        <time>2012-05-04T10:19:43Z</time>
      </trkpt>
      <trkpt lat="49.53429" lon="0.63605">
        <ele>148.891647</ele>
        <time>2012-05-04T10:19:57Z</time>
      </trkpt>
      <trkpt lat="49.53412" lon="0.63536">
        <ele>149</ele>
        <time>2012-05-04T10:20:09Z</time>
      </trkpt>
      <trkpt lat="49.53403" lon="0.63463">
        <ele>148.875595</ele>
        <time>2012-05-04T10:20:20Z</time>
      </trkpt>
      <trkpt lat="49.53373" lon="0.63398">
        <ele>148.893127</ele>
        <time>2012-05-04T10:20:30Z</time>
      </trkpt>
      <trkpt lat="49.53328" lon="0.63397">
        <ele>149.805847</ele>
        <time>2012-05-04T10:20:44Z</time>
      </trkpt>
      <trkpt lat="49.5329" lon="0.63409">
        <ele>149.996124</ele>
        <time>2012-05-04T10:20:59Z</time>
      </trkpt>
      <trkpt lat="49.5329" lon="0.63368">
        <ele>149.930084</ele>
        <time>2012-05-04T10:21:22Z</time>
      </trkpt>
      <trkpt lat="49.53265" lon="0.6332">
        <ele>150.425003</ele>
        <time>2012-05-04T10:21:36Z</time>
      </trkpt>
      <trkpt lat="49.53246" lon="0.63231">
        <ele>150.824997</ele>
        <time>2012-05-04T10:21:52Z</time>
      </trkpt>
      <trkpt lat="49.53223" lon="0.63183">
        <ele>151.113144</ele>
        <time>2012-05-04T10:22:06Z</time>
      </trkpt>
      <trkpt lat="49.53189" lon="0.63208">
        <ele>151</ele>
        <time>2012-05-04T10:22:18Z</time>
      </trkpt>
      <trkpt lat="49.53154" lon="0.63234">
        <ele>151</ele>
        <time>2012-05-04T10:22:30Z</time>
      </trkpt>
      <trkpt lat="49.53124" lon="0.6327">
        <ele>151</ele>
        <time>2012-05-04T10:22:43Z</time>
      </trkpt>
      <trkpt lat="49.53091" lon="0.63224">
        <ele>151</ele>
        <time>2012-05-04T10:23:06Z</time>
      </trkpt>
      <trkpt lat="49.53063" lon="0.63161">
        <ele>151</ele>
        <time>2012-05-04T10:23:17Z</time>
      </trkpt>
      <trkpt lat="49.53035" lon="0.631">
        <ele>151</ele>
        <time>2012-05-04T10:23:27Z</time>
      </trkpt>
      <trkpt lat="49.53005" lon="0.63045">
        <ele>150.860001</ele>
        <time>2012-05-04T10:23:38Z</time>
      </trkpt>
      <trkpt lat="49.52978" lon="0.62983">
        <ele>150.279999</ele>
        <time>2012-05-04T10:23:49Z</time>
      </trkpt>
      <trkpt lat="49.52947" lon="0.62925">
        <ele>149.396881</ele>
        <time>2012-05-04T10:24:02Z</time>
      </trkpt>
      <trkpt lat="49.52917" lon="0.62868">
        <ele>147.996994</ele>
        <time>2012-05-04T10:24:10Z</time>
      </trkpt>
      <trkpt lat="49.52883" lon="0.62814">
        <ele>147.332535</ele>
        <time>2012-05-04T10:24:17Z</time>
      </trkpt>
      <trkpt lat="49.52846" lon="0.62762">
        <ele>147</ele>
        <time>2012-05-04T10:24:24Z</time>
      </trkpt>
      <trkpt lat="49.52812" lon="0.62715">
        <ele>146.447189</ele>
        <time>2012-05-04T10:24:30Z</time>
      </trkpt>
      <trkpt lat="49.52779" lon="0.62666">
        <ele>145.945007</ele>
        <time>2012-05-04T10:24:36Z</time>
      </trkpt>
      <trkpt lat="49.52743" lon="0.62623">
        <ele>145.169998</ele>
        <time>2012-05-04T10:24:42Z</time>
      </trkpt>
      <trkpt lat="49.52707" lon="0.62579">
        <ele>145.348755</ele>
        <time>2012-05-04T10:24:48Z</time>
      </trkpt>
      <trkpt lat="49.5267" lon="0.62537">
        <ele>145.569855</ele>
        <time>2012-05-04T10:24:54Z</time>
      </trkpt>
      <trkpt lat="49.52634" lon="0.62494">
        <ele>146.094421</ele>
        <time>2012-05-04T10:25:00Z</time>
      </trkpt>
      <trkpt lat="49.52594" lon="0.62447">
        <ele>146.220001</ele>
        <time>2012-05-04T10:25:07Z</time>
      </trkpt>
      <trkpt lat="49.52555" lon="0.62402">
        <ele>146.046875</ele>
        <time>2012-05-04T10:25:14Z</time>
      </trkpt>
      <trkpt lat="49.52518" lon="0.62359">
        <ele>145.876877</ele>
        <time>2012-05-04T10:25:21Z</time>
      </trkpt>
      <trkpt lat="49.52481" lon="0.62317">
        <ele>146.111465</ele>
        <time>2012-05-04T10:25:28Z</time>
      </trkpt>
      <trkpt lat="49.52445" lon="0.62275">
        <ele>145.955521</ele>
        <time>2012-05-04T10:25:35Z</time>
      </trkpt>
      <trkpt lat="49.52408" lon="0.6223">
        <ele>145.921036</ele>
        <time>2012-05-04T10:25:43Z</time>
      </trkpt>
      <trkpt lat="49.5237" lon="0.62187">
        <ele>146.002029</ele>
        <time>2012-05-04T10:25:52Z</time>
      </trkpt>
      <trkpt lat="49.5234" lon="0.62136">
        <ele>145.968643</ele>
        <time>2012-05-04T10:26:05Z</time>
      </trkpt>
      <trkpt lat="49.52324" lon="0.62093">
        <ele>146.575623</ele>
        <time>2012-05-04T10:29:23Z</time>
      </trkpt>
      <trkpt lat="49.52309" lon="0.62025">
        <ele>146.866318</ele>
        <time>2012-05-04T10:29:34Z</time>
      </trkpt>
      <trkpt lat="49.52287" lon="0.61958">
        <ele>147</ele>
        <time>2012-05-04T10:29:47Z</time>
      </trkpt>
      <trkpt lat="49.52267" lon="0.61887">
        <ele>146.800003</ele>
        <time>2012-05-04T10:29:58Z</time>
      </trkpt>
      <trkpt lat="49.52242" lon="0.61826">
        <ele>146.259995</ele>
        <time>2012-05-04T10:30:08Z</time>
      </trkpt>
      <trkpt lat="49.52214" lon="0.61766">
        <ele>146</ele>
        <time>2012-05-04T10:30:19Z</time>
      </trkpt>
      <trkpt lat="49.52187" lon="0.6171">
        <ele>145.80687</ele>
        <time>2012-05-04T10:30:29Z</time>
      </trkpt>
      <trkpt lat="49.52209" lon="0.61643">
        <ele>145</ele>
        <time>2012-05-04T10:30:40Z</time>
      </trkpt>
      <trkpt lat="49.52218" lon="0.61584">
        <ele>144.997498</ele>
        <time>2012-05-04T10:34:05Z</time>
      </trkpt>
      <trkpt lat="49.52266" lon="0.61581">
        <ele>144.100006</ele>
        <time>2012-05-04T10:34:18Z</time>
      </trkpt>
      <trkpt lat="49.52316" lon="0.61619">
        <ele>143.576874</ele>
        <time>2012-05-04T10:34:27Z</time>
      </trkpt>
      <trkpt lat="49.52422" lon="0.61664">
        <ele>141.853745</ele>
        <time>2012-05-04T10:34:35Z</time>
      </trkpt>
      <trkpt lat="49.52566" lon="0.61673">
        <ele>139.237228</ele>
        <time>2012-05-04T10:34:42Z</time>
      </trkpt>
      <trkpt lat="49.5261" lon="0.61637">
        <ele>138.977142</ele>
        <time>2012-05-04T10:34:50Z</time>
      </trkpt>
      <trkpt lat="49.5257" lon="0.61469">
        <ele>134.508163</ele>
        <time>2012-05-04T10:34:57Z</time>
      </trkpt>
      <trkpt lat="49.52617" lon="0.6133">
        <ele>125.023705</ele>
        <time>2012-05-04T10:35:03Z</time>
      </trkpt>
      <trkpt lat="49.52665" lon="0.61214">
        <ele>116.361176</ele>
        <time>2012-05-04T10:35:09Z</time>
      </trkpt>
      <trkpt lat="49.52631" lon="0.61057">
        <ele>111.987465</ele>
        <time>2012-05-04T10:35:15Z</time>
      </trkpt>
      <trkpt lat="49.52569" lon="0.60924">
        <ele>110.806969</ele>
        <time>2012-05-04T10:35:21Z</time>
      </trkpt>
      <trkpt lat="49.52547" lon="0.60849">
        <ele>109.317421</ele>
        <time>2012-05-04T10:35:27Z</time>
      </trkpt>
      <trkpt lat="49.52574" lon="0.60665">
        <ele>103.843597</ele>
        <time>2012-05-04T10:35:33Z</time>
      </trkpt>
      <trkpt lat="49.52585" lon="0.60537">
        <ele>100.652489</ele>
        <time>2012-05-04T10:35:39Z</time>
      </trkpt>
      <trkpt lat="49.52566" lon="0.60417">
        <ele>97.747643</ele>
        <time>2012-05-04T10:35:45Z</time>
      </trkpt>
      <trkpt lat="49.52533" lon="0.60335">
        <ele>95.864342</ele>
        <time>2012-05-04T10:36:05Z</time>
      </trkpt>
      <trkpt lat="49.52505" lon="0.60257">
        <ele>94.63781</ele>
        <time>2012-05-04T10:36:38Z</time>
      </trkpt>
      <trkpt lat="49.52468" lon="0.60206">
        <ele>93.014503</ele>
        <time>2012-05-04T10:36:50Z</time>
      </trkpt>
      <trkpt lat="49.52441" lon="0.60183">
        <ele>91.806625</ele>
        <time>2012-05-04T10:36:59Z</time>
      </trkpt>
      <trkpt lat="49.52355" lon="0.601">
        <ele>92.013847</ele>
        <time>2012-05-04T10:37:06Z</time>
      </trkpt>
      <trkpt lat="49.52302" lon="0.60053">
        <ele>90.187111</ele>
        <time>2012-05-04T10:37:16Z</time>
      </trkpt>
      <trkpt lat="49.52259" lon="0.60013">
        <ele>89.368111</ele>
        <time>2012-05-04T10:37:27Z</time>
      </trkpt>
      <trkpt lat="49.52215" lon="0.59953">
        <ele>86.452423</ele>
        <time>2012-05-04T10:37:38Z</time>
      </trkpt>
      <trkpt lat="49.52174" lon="0.59892">
        <ele>84.650078</ele>
        <time>2012-05-04T10:37:51Z</time>
      </trkpt>
      <trkpt lat="49.52133" lon="0.59852">
        <ele>83.545372</ele>
        <time>2012-05-04T10:38:04Z</time>
      </trkpt>
      <trkpt lat="49.52081" lon="0.59819">
        <ele>84.470047</ele>
        <time>2012-05-04T10:38:14Z</time>
      </trkpt>
      <trkpt lat="49.52017" lon="0.59746">
        <ele>82.755142</ele>
        <time>2012-05-04T10:38:21Z</time>
      </trkpt>
      <trkpt lat="49.51983" lon="0.59699">
        <ele>80.887077</ele>
        <time>2012-05-04T10:38:27Z</time>
      </trkpt>
      <trkpt lat="49.51953" lon="0.59662">
        <ele>77.489906</ele>
        <time>2012-05-04T10:38:35Z</time>
      </trkpt>
      <trkpt lat="49.5191" lon="0.59625">
        <ele>77.21933</ele>
        <time>2012-05-04T10:38:43Z</time>
      </trkpt>
      <trkpt lat="49.51892" lon="0.59619">
        <ele>75.907082</ele>
        <time>2012-05-04T10:38:52Z</time>
      </trkpt>
      <trkpt lat="49.51844" lon="0.5961">
        <ele>73.36969</ele>
        <time>2012-05-04T10:42:24Z</time>
      </trkpt>
      <trkpt lat="49.51814" lon="0.59622">
        <ele>75.130913</ele>
        <time>2012-05-04T10:42:48Z</time>
      </trkpt>
      <trkpt lat="49.51776" lon="0.59615">
        <ele>73.407501</ele>
        <time>2012-05-04T10:43:24Z</time>
      </trkpt>
      <trkpt lat="49.51735" lon="0.59586">
        <ele>70.49971</ele>
        <time>2012-05-04T10:45:04Z</time>
      </trkpt>
      <trkpt lat="49.51701" lon="0.59542">
        <ele>71.187614</ele>
        <time>2012-05-04T10:45:20Z</time>
      </trkpt>
      <trkpt lat="49.51672" lon="0.59493">
        <ele>71.535286</ele>
        <time>2012-05-04T10:45:33Z</time>
      </trkpt>
      <trkpt lat="49.51627" lon="0.59461">
        <ele>66.242874</ele>
        <time>2012-05-04T10:45:40Z</time>
      </trkpt>
      <trkpt lat="49.51586" lon="0.59429">
        <ele>66.510063</ele>
        <time>2012-05-04T10:45:45Z</time>
      </trkpt>
      <trkpt lat="49.51549" lon="0.59373">
        <ele>64.84771</ele>
        <time>2012-05-04T10:45:51Z</time>
      </trkpt>
      <trkpt lat="49.51513" lon="0.59325">
        <ele>62.72105</ele>
        <time>2012-05-04T10:45:57Z</time>
      </trkpt>
      <trkpt lat="49.51471" lon="0.59278">
        <ele>61.821312</ele>
        <time>2012-05-04T10:46:04Z</time>
      </trkpt>
      <trkpt lat="49.51434" lon="0.59225">
        <ele>60.903999</ele>
        <time>2012-05-04T10:46:11Z</time>
      </trkpt>
      <trkpt lat="49.51396" lon="0.59176">
        <ele>60.402313</ele>
        <time>2012-05-04T10:46:17Z</time>
      </trkpt>
      <trkpt lat="49.51356" lon="0.59129">
        <ele>60.192001</ele>
        <time>2012-05-04T10:46:23Z</time>
      </trkpt>
      <trkpt lat="49.51313" lon="0.59087">
        <ele>59.223293</ele>
        <time>2012-05-04T10:46:30Z</time>
      </trkpt>
      <trkpt lat="49.51301" lon="0.59054">
        <ele>57.690723</ele>
        <time>2012-05-04T10:46:42Z</time>
      </trkpt>
      <trkpt lat="49.51348" lon="0.59053">
        <ele>59.630344</ele>
        <time>2012-05-04T10:46:58Z</time>
      </trkpt>
      <trkpt lat="49.51395" lon="0.59055">
        <ele>60.88298</ele>
        <time>2012-05-04T10:47:13Z</time>
      </trkpt>
      <trkpt lat="49.51444" lon="0.59059">
        <ele>63.131161</ele>
        <time>2012-05-04T10:47:31Z</time>
      </trkpt>
      <trkpt lat="49.51486" lon="0.59084">
        <ele>65.740211</ele>
        <time>2012-05-04T10:47:47Z</time>
      </trkpt>
      <trkpt lat="49.51521" lon="0.59122">
        <ele>69.509796</ele>
        <time>2012-05-04T10:48:13Z</time>
      </trkpt>
      <trkpt lat="49.51566" lon="0.59117">
        <ele>75.563751</ele>
        <time>2012-05-04T10:48:42Z</time>
      </trkpt>
      <trkpt lat="49.51613" lon="0.59121">
        <ele>78.788116</ele>
        <time>2012-05-04T10:49:06Z</time>
      </trkpt>
      <trkpt lat="49.51646" lon="0.59079">
        <ele>86.643837</ele>
        <time>2012-05-04T10:49:33Z</time>
      </trkpt>
      <trkpt lat="49.51677" lon="0.59032">
        <ele>92.803825</ele>
        <time>2012-05-04T10:50:01Z</time>
      </trkpt>
      <trkpt lat="49.51712" lon="0.58987">
        <ele>96.892349</ele>
        <time>2012-05-04T10:50:34Z</time>
      </trkpt>
      <trkpt lat="49.51751" lon="0.59024">
        <ele>104.916702</ele>
        <time>2012-05-04T10:51:10Z</time>
      </trkpt>
      <trkpt lat="49.51777" lon="0.59082">
        <ele>111.009865</ele>
        <time>2012-05-04T10:51:48Z</time>
      </trkpt>
      <trkpt lat="49.51816" lon="0.59109">
        <ele>115.139809</ele>
        <time>2012-05-04T10:52:22Z</time>
      </trkpt>
      <trkpt lat="49.51865" lon="0.59118">
        <ele>120.138329</ele>
        <time>2012-05-04T10:52:57Z</time>
      </trkpt>
      <trkpt lat="49.51907" lon="0.59092">
        <ele>126.055</ele>
        <time>2012-05-04T10:53:26Z</time>
      </trkpt>
      <trkpt lat="49.5195" lon="0.59065">
        <ele>129.200821</ele>
        <time>2012-05-04T10:53:58Z</time>
      </trkpt>
      <trkpt lat="49.51995" lon="0.5905">
        <ele>132.0755</ele>
        <time>2012-05-04T10:54:19Z</time>
      </trkpt>
      <trkpt lat="49.52028" lon="0.59011">
        <ele>134.459732</ele>
        <time>2012-05-04T10:54:40Z</time>
      </trkpt>
      <trkpt lat="49.52043" lon="0.58945">
        <ele>135.912781</ele>
        <time>2012-05-04T10:54:57Z</time>
      </trkpt>
      <trkpt lat="49.52064" lon="0.58886">
        <ele>137.421249</ele>
        <time>2012-05-04T10:55:16Z</time>
      </trkpt>
      <trkpt lat="49.52085" lon="0.58821">
        <ele>138.75412</ele>
        <time>2012-05-04T10:55:34Z</time>
      </trkpt>
      <trkpt lat="49.52102" lon="0.58754">
        <ele>139.221252</ele>
        <time>2012-05-04T10:55:52Z</time>
      </trkpt>
      <trkpt lat="49.5212" lon="0.58687">
        <ele>140.58403</ele>
        <time>2012-05-04T10:56:08Z</time>
      </trkpt>
      <trkpt lat="49.52136" lon="0.58617">
        <ele>141.038574</ele>
        <time>2012-05-04T10:56:25Z</time>
      </trkpt>
      <trkpt lat="49.52131" lon="0.58552">
        <ele>141.84024</ele>
        <time>2012-05-04T10:56:40Z</time>
      </trkpt>
      <trkpt lat="49.5216" lon="0.58489">
        <ele>142.505005</ele>
        <time>2012-05-04T10:56:53Z</time>
      </trkpt>
      <trkpt lat="49.522" lon="0.58438">
        <ele>142.390625</ele>
        <time>2012-05-04T10:57:12Z</time>
      </trkpt>
      <trkpt lat="49.52224" lon="0.58383">
        <ele>142</ele>
        <time>2012-05-04T10:57:25Z</time>
      </trkpt>
      <trkpt lat="49.52251" lon="0.58314">
        <ele>141.846497</ele>
        <time>2012-05-04T10:57:34Z</time>
      </trkpt>
      <trkpt lat="49.52282" lon="0.58263">
        <ele>141.514908</ele>
        <time>2012-05-04T10:57:42Z</time>
      </trkpt>
      <trkpt lat="49.52328" lon="0.58238">
        <ele>140.369598</ele>
        <time>2012-05-04T10:57:50Z</time>
      </trkpt>
      <trkpt lat="49.52379" lon="0.58222">
        <ele>140.464996</ele>
        <time>2012-05-04T10:57:58Z</time>
      </trkpt>
      <trkpt lat="49.52424" lon="0.58206">
        <ele>141.063599</ele>
        <time>2012-05-04T10:58:07Z</time>
      </trkpt>
      <trkpt lat="49.52472" lon="0.58214">
        <ele>141.677689</ele>
        <time>2012-05-04T10:58:17Z</time>
      </trkpt>
      <trkpt lat="49.5251" lon="0.58173">
        <ele>141.704376</ele>
        <time>2012-05-04T10:58:29Z</time>
      </trkpt>
      <trkpt lat="49.52554" lon="0.58145">
        <ele>141.187881</ele>
        <time>2012-05-04T10:58:40Z</time>
      </trkpt>
      <trkpt lat="49.52599" lon="0.5812">
        <ele>140.178741</ele>
        <time>2012-05-04T10:58:48Z</time>
      </trkpt>
      <trkpt lat="49.52646" lon="0.5809">
        <ele>137.89772</ele>
        <time>2012-05-04T10:58:56Z</time>
      </trkpt>
      <trkpt lat="49.52695" lon="0.58064">
        <ele>135.297501</ele>
        <time>2012-05-04T10:59:03Z</time>
      </trkpt>
      <trkpt lat="49.52748" lon="0.5804">
        <ele>131.444382</ele>
        <time>2012-05-04T10:59:09Z</time>
      </trkpt>
      <trkpt lat="49.52795" lon="0.58018">
        <ele>129.155502</ele>
        <time>2012-05-04T10:59:14Z</time>
      </trkpt>
      <trkpt lat="49.52841" lon="0.58">
        <ele>131.203873</ele>
        <time>2012-05-04T10:59:23Z</time>
      </trkpt>
      <trkpt lat="49.52866" lon="0.58058">
        <ele>131.743484</ele>
        <time>2012-05-04T10:59:40Z</time>
      </trkpt>
      <trkpt lat="49.5288" lon="0.58125">
        <ele>131.445221</ele>
        <time>2012-05-04T10:59:51Z</time>
      </trkpt>
      <trkpt lat="49.52895" lon="0.58197">
        <ele>130.747406</ele>
        <time>2012-05-04T11:00:01Z</time>
      </trkpt>
      <trkpt lat="49.52906" lon="0.58266">
        <ele>131.554459</ele>
        <time>2012-05-04T11:00:11Z</time>
      </trkpt>
      <trkpt lat="49.52918" lon="0.58337">
        <ele>134.182159</ele>
        <time>2012-05-04T11:00:21Z</time>
      </trkpt>
      <trkpt lat="49.5293" lon="0.58409">
        <ele>135.109314</ele>
        <time>2012-05-04T11:00:32Z</time>
      </trkpt>
      <trkpt lat="49.5289" lon="0.58439">
        <ele>136.136856</ele>
        <time>2012-05-04T11:00:44Z</time>
      </trkpt>
      <trkpt lat="49.52848" lon="0.58454">
        <ele>138.052505</ele>
        <time>2012-05-04T11:01:15Z</time>
      </trkpt>
    </trkseg>
  </trk>
</gpx>